Time,TemperatureF,DewpointF,PressureIn,WindDirection,WindDirectionDegrees,WindSpeedMPH,WindSpeedGustMPH,Humidity,HourlyPrecipIn,Conditions,Clouds,dailyrainin,SoftwareType,DateUTC
2013-03-14 00:00:00,62.9,53.0,30.12,WNW,298,2.5,2.5,69,0.00,,,0.00,TxWx,2013-03-14 04:00:00,
2013-03-14 00:01:00,62.9,53.0,30.12,NW,321,2.5,3.1,70,0.00,,,0.00,TxWx,2013-03-14 04:01:00,
2013-03-14 00:05:00,63.0,53.0,30.12,WNW,298,2.5,3.1,70,0.00,,,0.00,TxWx,2013-03-14 04:05:00,
2013-03-14 00:07:00,62.8,53.0,30.13,NW,321,3.1,3.1,70,0.00,,,0.00,TxWx,2013-03-14 04:07:00,
2013-03-14 00:12:00,62.6,53.0,30.12,West,276,1.9,2.5,69,0.00,,,0.00,TxWx,2013-03-14 04:12:00,
2013-03-14 00:17:00,62.4,52.0,30.12,WNW,298,2.5,2.5,70,0.00,,,0.00,TxWx,2013-03-14 04:17:00,
2013-03-14 00:19:00,62.4,52.0,30.12,NNW,343,3.1,3.7,70,0.00,,,0.00,TxWx,2013-03-14 04:19:00,
2013-03-14 00:22:00,62.4,52.0,30.12,WNW,298,3.1,3.1,70,0.00,,,0.00,TxWx,2013-03-14 04:22:00,
2013-03-14 00:23:00,62.5,53.0,30.13,WNW,298,2.5,3.1,71,0.00,,,0.00,TxWx,2013-03-14 04:23:00,
2013-03-14 00:25:00,62.5,52.0,30.12,WNW,298,2.5,2.5,71,0.00,,,0.00,TxWx,2013-03-14 04:25:00,
2013-03-14 00:26:00,62.4,52.0,30.12,WNW,298,2.5,3.1,71,0.00,,,0.00,TxWx,2013-03-14 04:26:00,
2013-03-14 00:29:00,62.3,52.0,30.13,West,276,2.5,2.5,71,0.00,,,0.00,TxWx,2013-03-14 04:29:00,
2013-03-14 00:31:00,62.2,52.0,30.13,NW,321,2.5,3.1,71,0.00,,,0.00,TxWx,2013-03-14 04:31:00,
2013-03-14 00:34:00,62.1,52.0,30.12,WNW,298,3.1,3.7,71,0.00,,,0.00,TxWx,2013-03-14 04:34:00,
2013-03-14 00:37:00,62.0,52.0,30.13,WNW,298,2.5,3.1,71,0.00,,,0.00,TxWx,2013-03-14 04:37:00,
2013-03-14 00:39:00,61.9,52.0,30.13,NW,321,3.1,3.1,71,0.00,,,0.00,TxWx,2013-03-14 04:39:00,
2013-03-14 00:40:00,61.9,52.0,30.12,West,276,3.7,3.7,71,0.00,,,0.00,TxWx,2013-03-14 04:40:00,
2013-03-14 00:41:00,61.9,52.0,30.13,West,276,3.1,3.7,71,0.00,,,0.00,TxWx,2013-03-14 04:41:00,
2013-03-14 00:44:00,61.9,52.0,30.13,WNW,298,2.5,2.5,71,0.00,,,0.00,TxWx,2013-03-14 04:44:00,
2013-03-14 00:45:00,61.9,52.0,30.13,WNW,298,4.3,4.3,71,0.00,,,0.00,TxWx,2013-03-14 04:45:00,
2013-03-14 00:47:00,61.8,53.0,30.13,WNW,298,2.5,3.1,72,0.00,,,0.00,TxWx,2013-03-14 04:47:00,
2013-03-14 00:49:00,61.7,53.0,30.12,WNW,298,1.9,2.5,72,0.00,,,0.00,TxWx,2013-03-14 04:49:00,
2013-03-14 00:51:00,61.8,53.0,30.13,WNW,298,4.3,4.3,72,0.00,,,0.00,TxWx,2013-03-14 04:51:00,
2013-03-14 00:52:00,61.9,53.0,30.12,WNW,298,3.1,3.1,72,0.00,,,0.00,TxWx,2013-03-14 04:52:00,
2013-03-14 00:53:00,61.9,53.0,30.12,West,276,2.5,2.5,73,0.00,,,0.00,TxWx,2013-03-14 04:53:00,
2013-03-14 00:55:00,61.6,53.0,30.12,WNW,298,2.5,2.5,72,0.00,,,0.00,TxWx,2013-03-14 04:55:00,
2013-03-14 00:56:00,61.5,53.0,30.12,NW,321,3.1,3.7,72,0.00,,,0.00,TxWx,2013-03-14 04:56:00,
2013-03-14 00:58:00,61.6,53.0,30.12,WNW,298,3.1,3.7,72,0.00,,,0.00,TxWx,2013-03-14 04:58:00,
2013-03-14 01:01:00,61.5,52.0,30.12,WNW,298,2.5,3.1,72,0.00,,,0.00,TxWx,2013-03-14 05:01:00,
2013-03-14 01:02:00,61.5,53.0,30.12,WNW,298,3.7,3.7,72,0.00,,,0.00,TxWx,2013-03-14 05:02:00,
2013-03-14 01:04:00,61.5,53.0,30.12,WNW,298,2.5,3.1,72,0.00,,,0.00,TxWx,2013-03-14 05:04:00,
2013-03-14 01:07:00,61.4,52.0,30.12,WNW,298,4.3,4.3,72,0.00,,,0.00,TxWx,2013-03-14 05:07:00,
2013-03-14 01:09:00,61.4,52.0,30.12,WNW,298,3.1,3.1,72,0.00,,,0.00,TxWx,2013-03-14 05:09:00,
2013-03-14 01:11:00,61.3,52.0,30.12,NW,321,3.7,3.7,72,0.00,,,0.00,TxWx,2013-03-14 05:11:00,
2013-03-14 01:13:00,61.4,52.0,30.12,WNW,298,3.7,3.7,72,0.00,,,0.00,TxWx,2013-03-14 05:13:00,
2013-03-14 01:14:00,61.2,52.0,30.12,WNW,298,3.1,3.1,72,0.00,,,0.00,TxWx,2013-03-14 05:14:00,
2013-03-14 01:18:00,61.2,52.0,30.12,WNW,298,3.7,3.7,73,0.00,,,0.00,TxWx,2013-03-14 05:18:00,
2013-03-14 01:19:00,61.1,52.0,30.12,WNW,298,3.7,3.7,73,0.00,,,0.00,TxWx,2013-03-14 05:19:00,
2013-03-14 01:23:00,60.9,52.0,30.12,NW,321,3.1,3.1,72,0.00,,,0.00,TxWx,2013-03-14 05:23:00,
2013-03-14 01:24:00,60.9,52.0,30.12,West,276,3.1,3.1,72,0.00,,,0.00,TxWx,2013-03-14 05:24:00,
2013-03-14 01:26:00,60.7,52.0,30.12,NW,321,3.1,3.1,72,0.00,,,0.00,TxWx,2013-03-14 05:26:00,
2013-03-14 01:29:00,60.7,52.0,30.12,WNW,298,3.7,3.7,73,0.00,,,0.00,TxWx,2013-03-14 05:29:00,
2013-03-14 01:31:00,60.6,52.0,30.12,WNW,298,3.7,3.7,73,0.00,,,0.00,TxWx,2013-03-14 05:31:00,
2013-03-14 01:32:00,60.7,52.0,30.12,NW,321,3.7,3.7,73,0.00,,,0.00,TxWx,2013-03-14 05:32:00,
2013-03-14 01:35:00,60.8,52.0,30.12,WNW,298,3.1,3.7,74,0.00,,,0.00,TxWx,2013-03-14 05:35:00,
2013-03-14 01:37:00,60.7,52.0,30.12,WNW,298,3.1,3.1,74,0.00,,,0.00,TxWx,2013-03-14 05:37:00,
2013-03-14 01:40:00,60.8,53.0,30.12,WNW,298,3.1,3.1,74,0.00,,,0.00,TxWx,2013-03-14 05:40:00,
2013-03-14 01:41:00,60.8,53.0,30.12,West,276,4.3,4.3,75,0.00,,,0.00,TxWx,2013-03-14 05:41:00,
2013-03-14 01:43:00,60.5,53.0,30.12,WNW,298,4.3,5.0,75,0.00,,,0.00,TxWx,2013-03-14 05:43:00,
2013-03-14 01:47:00,60.1,52.0,30.12,NW,321,4.3,4.3,75,0.00,,,0.00,TxWx,2013-03-14 05:47:00,
2013-03-14 01:49:00,59.9,52.0,30.12,WNW,298,4.3,4.3,75,0.00,,,0.00,TxWx,2013-03-14 05:49:00,
2013-03-14 01:52:00,59.6,52.0,30.12,WNW,298,7.4,9.3,76,0.00,,,0.00,TxWx,2013-03-14 05:52:00,
2013-03-14 01:54:00,59.9,53.0,30.12,WNW,298,6.8,6.8,77,0.00,,,0.00,TxWx,2013-03-14 05:54:00,
2013-03-14 01:57:00,59.6,52.0,30.12,WNW,298,7.4,8.7,76,0.00,,,0.00,TxWx,2013-03-14 05:57:00,
2013-03-14 02:00:00,59.3,51.0,30.12,NW,321,5.6,7.4,76,0.00,,,0.00,TxWx,2013-03-14 06:00:00,
2013-03-14 02:01:00,59.2,52.0,30.12,NW,321,7.4,9.3,77,0.00,,,0.00,TxWx,2013-03-14 06:01:00,
2013-03-14 02:05:00,59.0,52.0,30.12,WNW,298,8.7,8.7,77,0.00,,,0.00,TxWx,2013-03-14 06:05:00,
2013-03-14 02:06:00,59.0,52.0,30.12,NW,321,8.0,8.0,77,0.00,,,0.00,TxWx,2013-03-14 06:06:00,
2013-03-14 02:09:00,58.8,52.0,30.12,NW,321,9.3,9.9,77,0.00,,,0.00,TxWx,2013-03-14 06:09:00,
2013-03-14 02:10:00,59.0,52.0,30.12,WNW,298,7.4,7.4,78,0.00,,,0.00,TxWx,2013-03-14 06:10:00,
2013-03-14 02:12:00,58.7,52.0,30.12,WNW,298,9.9,9.9,77,0.00,,,0.00,TxWx,2013-03-14 06:12:00,
2013-03-14 02:13:00,58.9,52.0,30.12,NW,321,8.7,8.7,78,0.00,,,0.00,TxWx,2013-03-14 06:13:00,
2013-03-14 02:15:00,58.8,52.0,30.12,WNW,298,8.0,8.7,78,0.00,,,0.00,TxWx,2013-03-14 06:15:00,
2013-03-14 02:18:00,58.7,52.0,30.12,NW,321,5.6,5.6,78,0.00,,,0.00,TxWx,2013-03-14 06:18:00,
2013-03-14 02:21:00,58.4,51.0,30.12,NW,321,10.5,10.5,77,0.00,,,0.00,TxWx,2013-03-14 06:21:00,
2013-03-14 02:23:00,58.6,52.0,30.12,WNW,298,6.2,6.8,77,0.00,,,0.00,TxWx,2013-03-14 06:23:00,
2013-03-14 02:26:00,58.3,51.0,30.12,West,276,3.7,4.3,77,0.00,,,0.00,TxWx,2013-03-14 06:26:00,
2013-03-14 02:28:00,58.7,52.0,30.12,WNW,298,6.2,7.4,78,0.00,,,0.00,TxWx,2013-03-14 06:28:00,
2013-03-14 02:30:00,58.4,51.0,30.12,NW,321,5.0,5.6,77,0.00,,,0.00,TxWx,2013-03-14 06:30:00,
2013-03-14 02:31:00,58.5,52.0,30.12,NW,321,4.3,5.6,77,0.00,,,0.00,TxWx,2013-03-14 06:31:00,
2013-03-14 02:36:00,58.2,51.0,30.12,WNW,298,6.2,6.2,77,0.00,,,0.00,TxWx,2013-03-14 06:36:00,
2013-03-14 02:37:00,58.4,51.0,30.12,NW,321,5.0,5.0,77,0.00,,,0.00,TxWx,2013-03-14 06:37:00,
2013-03-14 02:38:00,58.3,51.0,30.12,NNW,343,5.0,5.0,77,0.00,,,0.00,TxWx,2013-03-14 06:38:00,
2013-03-14 02:42:00,58.3,51.0,30.12,NW,321,5.0,5.0,77,0.00,,,0.00,TxWx,2013-03-14 06:42:00,
2013-03-14 02:43:00,58.1,51.0,30.12,NW,321,8.7,9.9,77,0.00,,,0.00,TxWx,2013-03-14 06:43:00,
2013-03-14 02:44:00,58.2,51.0,30.12,NW,321,5.0,5.6,77,0.00,,,0.00,TxWx,2013-03-14 06:44:00,
2013-03-14 02:45:00,58.1,51.0,30.11,NW,321,5.6,5.6,77,0.00,,,0.00,TxWx,2013-03-14 06:45:00,
2013-03-14 02:48:00,57.9,50.0,30.11,NW,321,5.0,5.0,76,0.00,,,0.00,TxWx,2013-03-14 06:48:00,
2013-03-14 02:50:00,58.1,51.0,30.11,NW,321,5.6,5.6,77,0.00,,,0.00,TxWx,2013-03-14 06:50:00,
2013-03-14 02:52:00,58.2,51.0,30.11,NW,321,6.2,6.2,77,0.00,,,0.00,TxWx,2013-03-14 06:52:00,
2013-03-14 02:54:00,57.9,50.0,30.11,West,276,3.7,3.7,76,0.00,,,0.00,TxWx,2013-03-14 06:54:00,
2013-03-14 02:55:00,58.0,51.0,30.11,WNW,298,3.7,5.0,77,0.00,,,0.00,TxWx,2013-03-14 06:55:00,
2013-03-14 02:56:00,58.0,51.0,30.11,NNE,28,3.1,4.3,77,0.00,,,0.00,TxWx,2013-03-14 06:56:00,
2013-03-14 02:59:00,58.0,50.0,30.12,NW,321,6.2,6.2,76,0.00,,,0.00,TxWx,2013-03-14 06:59:00,
2013-03-14 03:01:00,58.0,50.0,30.12,WNW,298,4.3,4.3,76,0.00,,,0.00,TxWx,2013-03-14 07:01:00,
2013-03-14 03:02:00,57.9,50.0,30.12,WNW,298,7.4,8.0,76,0.00,,,0.00,TxWx,2013-03-14 07:02:00,
2013-03-14 03:04:00,58.0,50.0,30.12,WNW,298,3.1,3.1,76,0.00,,,0.00,TxWx,2013-03-14 07:04:00,
2013-03-14 03:05:00,58.0,50.0,30.12,WNW,298,3.1,3.7,76,0.00,,,0.00,TxWx,2013-03-14 07:05:00,
2013-03-14 03:06:00,57.9,50.0,30.12,NNW,343,6.2,7.4,76,0.00,,,0.00,TxWx,2013-03-14 07:06:00,
2013-03-14 03:08:00,57.9,50.0,30.12,WNW,298,5.6,5.6,76,0.00,,,0.00,TxWx,2013-03-14 07:08:00,
2013-03-14 03:11:00,58.0,50.0,30.12,West,276,5.0,5.6,76,0.00,,,0.00,TxWx,2013-03-14 07:11:00,
2013-03-14 03:14:00,58.1,50.0,30.12,WNW,298,5.0,5.0,76,0.00,,,0.00,TxWx,2013-03-14 07:14:00,
2013-03-14 03:16:00,57.9,50.0,30.12,West,276,5.6,5.6,76,0.00,,,0.00,TxWx,2013-03-14 07:16:00,
2013-03-14 03:17:00,58.0,50.0,30.12,WNW,298,5.6,5.6,76,0.00,,,0.00,TxWx,2013-03-14 07:17:00,
2013-03-14 03:18:00,58.1,50.0,30.12,WNW,298,3.1,4.3,76,0.00,,,0.00,TxWx,2013-03-14 07:18:00,
2013-03-14 03:20:00,58.1,50.0,30.12,WNW,298,4.3,4.3,76,0.00,,,0.00,TxWx,2013-03-14 07:20:00,
2013-03-14 03:22:00,58.1,50.0,30.12,NW,321,4.3,5.0,76,0.00,,,0.00,TxWx,2013-03-14 07:22:00,
2013-03-14 03:23:00,57.9,50.0,30.12,NW,321,7.4,7.4,75,0.00,,,0.00,TxWx,2013-03-14 07:23:00,
2013-03-14 03:25:00,57.8,50.0,30.12,WNW,298,4.3,5.6,75,0.00,,,0.00,TxWx,2013-03-14 07:25:00,
2013-03-14 03:28:00,57.9,50.0,30.12,NW,321,5.0,5.6,75,0.00,,,0.00,TxWx,2013-03-14 07:28:00,
2013-03-14 03:29:00,57.9,50.0,30.12,WNW,298,5.0,5.0,75,0.00,,,0.00,TxWx,2013-03-14 07:29:00,
2013-03-14 03:31:00,57.7,50.0,30.12,WNW,298,5.6,6.2,75,0.00,,,0.00,TxWx,2013-03-14 07:31:00,
2013-03-14 03:32:00,57.8,50.0,30.12,NW,321,6.2,6.2,75,0.00,,,0.00,TxWx,2013-03-14 07:32:00,
2013-03-14 03:35:00,57.7,50.0,30.11,NW,321,7.4,8.0,76,0.00,,,0.00,TxWx,2013-03-14 07:35:00,
2013-03-14 03:36:00,57.8,50.0,30.11,NW,321,6.8,6.8,76,0.00,,,0.00,TxWx,2013-03-14 07:36:00,
2013-03-14 03:37:00,57.7,50.0,30.11,WNW,298,5.6,7.4,76,0.00,,,0.00,TxWx,2013-03-14 07:37:00,
2013-03-14 03:38:00,57.5,49.0,30.11,West,276,5.6,6.2,75,0.00,,,0.00,TxWx,2013-03-14 07:38:00,
2013-03-14 03:41:00,57.4,49.0,30.11,WNW,298,5.0,5.0,75,0.00,,,0.00,TxWx,2013-03-14 07:41:00,
2013-03-14 03:42:00,57.4,49.0,30.11,WNW,298,5.6,6.2,75,0.00,,,0.00,TxWx,2013-03-14 07:42:00,
2013-03-14 03:43:00,57.6,50.0,30.11,NW,321,8.0,8.0,76,0.00,,,0.00,TxWx,2013-03-14 07:43:00,
2013-03-14 03:46:00,57.4,49.0,30.11,NW,321,9.3,9.3,76,0.00,,,0.00,TxWx,2013-03-14 07:46:00,
2013-03-14 03:47:00,57.3,49.0,30.11,West,276,6.8,6.8,76,0.00,,,0.00,TxWx,2013-03-14 07:47:00,
2013-03-14 03:48:00,57.3,49.0,30.11,WNW,298,3.1,3.1,76,0.00,,,0.00,TxWx,2013-03-14 07:48:00,
2013-03-14 03:49:00,57.3,49.0,30.11,NW,321,4.3,5.0,76,0.00,,,0.00,TxWx,2013-03-14 07:49:00,
2013-03-14 03:52:00,57.0,49.0,30.11,NW,321,5.6,8.7,75,0.00,,,0.00,TxWx,2013-03-14 07:52:00,
2013-03-14 03:53:00,57.3,49.0,30.11,NW,321,5.6,5.6,76,0.00,,,0.00,TxWx,2013-03-14 07:53:00,
2013-03-14 03:55:00,57.4,49.0,30.11,NNW,343,5.0,5.0,76,0.00,,,0.00,TxWx,2013-03-14 07:55:00,
2013-03-14 03:56:00,57.2,49.0,30.11,WNW,298,6.2,6.2,76,0.00,,,0.00,TxWx,2013-03-14 07:56:00,
2013-03-14 03:59:00,57.3,49.0,30.11,NNW,343,5.0,5.0,76,0.00,,,0.00,TxWx,2013-03-14 07:59:00,
2013-03-14 04:01:00,57.0,49.0,30.11,NW,321,5.6,6.2,76,0.00,,,0.00,TxWx,2013-03-14 08:01:00,
2013-03-14 04:02:00,57.1,49.0,30.11,NW,321,6.8,7.4,76,0.00,,,0.00,TxWx,2013-03-14 08:02:00,
2013-03-14 04:04:00,57.1,49.0,30.11,West,276,3.7,3.7,76,0.00,,,0.00,TxWx,2013-03-14 08:04:00,
2013-03-14 04:06:00,57.0,49.0,30.11,West,276,8.7,8.7,76,0.00,,,0.00,TxWx,2013-03-14 08:06:00,
2013-03-14 04:08:00,56.9,49.0,30.11,West,276,3.7,3.7,75,0.00,,,0.00,TxWx,2013-03-14 08:08:00,
2013-03-14 04:09:00,57.2,49.0,30.11,NW,321,6.2,6.2,76,0.00,,,0.00,TxWx,2013-03-14 08:09:00,
2013-03-14 04:10:00,57.3,49.0,30.11,WNW,298,4.3,4.3,76,0.00,,,0.00,TxWx,2013-03-14 08:10:00,
2013-03-14 04:13:00,57.4,49.0,30.10,NNW,343,5.6,5.6,76,0.00,,,0.00,TxWx,2013-03-14 08:13:00,
2013-03-14 04:14:00,57.2,49.0,30.11,NNW,343,5.0,6.8,75,0.00,,,0.00,TxWx,2013-03-14 08:14:00,
2013-03-14 04:16:00,57.1,49.0,30.11,NNW,343,5.0,5.0,75,0.00,,,0.00,TxWx,2013-03-14 08:16:00,
2013-03-14 04:20:00,57.2,49.0,30.10,NW,321,5.6,5.6,75,0.00,,,0.00,TxWx,2013-03-14 08:20:00,
2013-03-14 04:22:00,57.1,49.0,30.10,NW,321,4.3,4.3,74,0.00,,,0.00,TxWx,2013-03-14 08:22:00,
2013-03-14 04:23:00,57.0,49.0,30.10,WNW,298,4.3,5.6,74,0.00,,,0.00,TxWx,2013-03-14 08:23:00,
2013-03-14 04:25:00,57.2,49.0,30.10,WSW,253,3.1,3.7,74,0.00,,,0.00,TxWx,2013-03-14 08:25:00,
2013-03-14 04:27:00,57.1,49.0,30.10,NNW,343,6.2,6.2,74,0.00,,,0.00,TxWx,2013-03-14 08:27:00,
2013-03-14 04:29:00,57.0,49.0,30.10,WNW,298,5.0,5.0,74,0.00,,,0.00,TxWx,2013-03-14 08:29:00,
2013-03-14 04:30:00,57.2,49.0,30.10,NW,321,4.3,5.6,74,0.00,,,0.00,TxWx,2013-03-14 08:30:00,
2013-03-14 04:31:00,57.0,49.0,30.10,WNW,298,8.7,9.9,74,0.00,,,0.00,TxWx,2013-03-14 08:31:00,
2013-03-14 04:32:00,57.0,49.0,30.10,NW,321,4.3,6.8,74,0.00,,,0.00,TxWx,2013-03-14 08:32:00,
2013-03-14 04:36:00,57.0,48.0,30.10,NW,321,6.2,6.2,73,0.00,,,0.00,TxWx,2013-03-14 08:36:00,
2013-03-14 04:37:00,57.1,49.0,30.10,WNW,298,7.4,7.4,74,0.00,,,0.00,TxWx,2013-03-14 08:37:00,
2013-03-14 04:38:00,57.0,48.0,30.10,WNW,298,4.3,4.3,73,0.00,,,0.00,TxWx,2013-03-14 08:38:00,
2013-03-14 04:41:00,56.9,48.0,30.10,WNW,298,4.3,5.0,72,0.00,,,0.00,TxWx,2013-03-14 08:41:00,
2013-03-14 04:43:00,57.2,49.0,30.10,NW,321,4.3,5.0,74,0.00,,,0.00,TxWx,2013-03-14 08:43:00,
2013-03-14 04:44:00,57.1,48.0,30.10,WNW,298,5.6,6.8,73,0.00,,,0.00,TxWx,2013-03-14 08:44:00,
2013-03-14 04:45:00,57.0,48.0,30.10,West,276,5.6,5.6,73,0.00,,,0.00,TxWx,2013-03-14 08:45:00,
2013-03-14 04:48:00,56.9,48.0,30.10,West,276,5.0,5.0,72,0.00,,,0.00,TxWx,2013-03-14 08:48:00,
2013-03-14 04:50:00,57.0,48.0,30.10,WNW,298,11.8,11.8,73,0.00,,,0.00,TxWx,2013-03-14 08:50:00,
2013-03-14 04:51:00,57.1,48.0,30.10,WSW,253,4.3,5.0,73,0.00,,,0.00,TxWx,2013-03-14 08:51:00,
2013-03-14 04:54:00,57.0,48.0,30.10,West,276,5.0,5.0,73,0.00,,,0.00,TxWx,2013-03-14 08:54:00,
2013-03-14 04:55:00,57.1,48.0,30.10,WNW,298,8.0,8.0,73,0.00,,,0.00,TxWx,2013-03-14 08:55:00,
2013-03-14 04:56:00,56.9,48.0,30.10,NW,321,4.3,7.4,72,0.00,,,0.00,TxWx,2013-03-14 08:56:00,
2013-03-14 04:57:00,56.9,48.0,30.10,NW,321,7.4,7.4,72,0.00,,,0.00,TxWx,2013-03-14 08:57:00,
2013-03-14 04:59:00,56.8,48.0,30.10,NW,321,5.6,6.8,72,0.00,,,0.00,TxWx,2013-03-14 08:59:00,
2013-03-14 05:02:00,57.0,48.0,30.10,NW,321,4.3,4.3,72,0.00,,,0.00,TxWx,2013-03-14 09:02:00,
2013-03-14 05:03:00,57.0,48.0,30.10,WNW,298,4.3,4.3,72,0.00,,,0.00,TxWx,2013-03-14 09:03:00,
2013-03-14 05:04:00,57.1,48.0,30.10,NNW,343,7.4,8.7,72,0.00,,,0.00,TxWx,2013-03-14 09:04:00,
2013-03-14 05:06:00,56.9,48.0,30.10,WSW,253,4.3,5.0,71,0.00,,,0.00,TxWx,2013-03-14 09:06:00,
2013-03-14 05:08:00,57.0,48.0,30.10,WNW,298,4.3,4.3,72,0.00,,,0.00,TxWx,2013-03-14 09:08:00,
2013-03-14 05:09:00,57.0,48.0,30.10,WNW,298,3.1,3.7,72,0.00,,,0.00,TxWx,2013-03-14 09:09:00,
2013-03-14 05:10:00,56.9,48.0,30.10,NW,321,8.7,9.9,71,0.00,,,0.00,TxWx,2013-03-14 09:10:00,
2013-03-14 05:11:00,57.0,48.0,30.10,NW,321,9.9,11.1,72,0.00,,,0.00,TxWx,2013-03-14 09:11:00,
2013-03-14 05:13:00,56.9,47.0,30.10,WSW,253,6.2,7.4,71,0.00,,,0.00,TxWx,2013-03-14 09:13:00,
2013-03-14 05:15:00,56.9,47.0,30.10,WNW,298,5.6,5.6,71,0.00,,,0.00,TxWx,2013-03-14 09:15:00,
2013-03-14 05:16:00,56.8,47.0,30.11,NNW,343,9.9,10.5,71,0.00,,,0.00,TxWx,2013-03-14 09:16:00,
2013-03-14 05:17:00,56.7,47.0,30.10,WNW,298,5.6,6.2,70,0.00,,,0.00,TxWx,2013-03-14 09:17:00,
2013-03-14 05:19:00,56.8,47.0,30.10,NW,321,7.4,7.4,71,0.00,,,0.00,TxWx,2013-03-14 09:19:00,
2013-03-14 05:20:00,57.0,47.0,30.10,NW,321,6.8,6.8,71,0.00,,,0.00,TxWx,2013-03-14 09:20:00,
2013-03-14 05:22:00,56.8,47.0,30.10,WNW,298,9.3,9.3,71,0.00,,,0.00,TxWx,2013-03-14 09:22:00,
2013-03-14 05:24:00,56.7,47.0,30.10,WSW,253,8.7,10.5,70,0.00,,,0.00,TxWx,2013-03-14 09:24:00,
2013-03-14 05:25:00,56.7,47.0,30.11,West,276,5.0,5.6,70,0.00,,,0.00,TxWx,2013-03-14 09:25:00,
2013-03-14 05:26:00,56.7,47.0,30.10,NW,321,8.0,8.0,70,0.00,,,0.00,TxWx,2013-03-14 09:26:00,
2013-03-14 05:28:00,56.6,47.0,30.11,NNW,343,7.4,7.4,70,0.00,,,0.00,TxWx,2013-03-14 09:28:00,
2013-03-14 05:31:00,56.5,46.0,30.11,NW,321,5.0,5.6,69,0.00,,,0.00,TxWx,2013-03-14 09:31:00,
2013-03-14 05:32:00,56.8,47.0,30.11,WNW,298,6.8,6.8,71,0.00,,,0.00,TxWx,2013-03-14 09:32:00,
2013-03-14 05:33:00,56.4,46.0,30.11,NNW,343,11.8,11.8,70,0.00,,,0.00,TxWx,2013-03-14 09:33:00,
2013-03-14 05:36:00,56.4,46.0,30.11,NW,321,5.6,7.4,70,0.00,,,0.00,TxWx,2013-03-14 09:36:00,
2013-03-14 05:37:00,56.4,46.0,30.11,WNW,298,5.6,6.8,70,0.00,,,0.00,TxWx,2013-03-14 09:37:00,
2013-03-14 05:39:00,56.4,47.0,30.11,NW,321,6.8,8.0,71,0.00,,,0.00,TxWx,2013-03-14 09:39:00,
2013-03-14 05:42:00,56.1,46.0,30.11,NW,321,5.0,5.6,70,0.00,,,0.00,TxWx,2013-03-14 09:42:00,
2013-03-14 05:45:00,56.0,47.0,30.11,NW,321,10.5,10.5,71,0.00,,,0.00,TxWx,2013-03-14 09:45:00,
2013-03-14 05:47:00,56.1,47.0,30.11,WNW,298,7.4,7.4,71,0.00,,,0.00,TxWx,2013-03-14 09:47:00,
2013-03-14 05:49:00,55.8,46.0,30.11,NW,321,8.0,8.0,70,0.00,,,0.00,TxWx,2013-03-14 09:49:00,
2013-03-14 05:52:00,55.9,46.0,30.11,NNW,343,9.3,11.8,70,0.00,,,0.00,TxWx,2013-03-14 09:52:00,
2013-03-14 05:53:00,56.1,47.0,30.12,NW,321,4.3,5.0,71,0.00,,,0.00,TxWx,2013-03-14 09:53:00,
2013-03-14 05:54:00,56.0,47.0,30.12,North,6,6.8,7.4,71,0.00,,,0.00,TxWx,2013-03-14 09:54:00,
2013-03-14 05:57:00,55.9,46.0,30.12,NNW,343,5.0,5.6,70,0.00,,,0.00,TxWx,2013-03-14 09:57:00,
2013-03-14 05:58:00,56.1,47.0,30.12,NNE,28,5.0,5.6,71,0.00,,,0.00,TxWx,2013-03-14 09:58:00,
2013-03-14 05:59:00,55.9,47.0,30.12,WNW,298,5.6,7.4,71,0.00,,,0.00,TxWx,2013-03-14 09:59:00,
2013-03-14 06:00:00,55.9,46.0,30.12,NW,321,3.1,3.7,70,0.00,,,0.00,TxWx,2013-03-14 10:00:00,
2013-03-14 06:03:00,55.7,46.0,30.12,SW,231,5.0,5.6,69,0.00,,,0.00,TxWx,2013-03-14 10:03:00,
2013-03-14 06:04:00,55.9,46.0,30.12,North,6,6.8,6.8,69,0.00,,,0.00,TxWx,2013-03-14 10:04:00,
2013-03-14 06:06:00,56.0,46.0,30.12,NW,321,5.0,5.6,70,0.00,,,0.00,TxWx,2013-03-14 10:06:00,
2013-03-14 06:08:00,56.1,46.0,30.12,NNW,343,3.7,4.3,70,0.00,,,0.00,TxWx,2013-03-14 10:08:00,
2013-03-14 06:11:00,55.9,46.0,30.12,NW,321,4.3,4.3,69,0.00,,,0.00,TxWx,2013-03-14 10:11:00,
2013-03-14 06:14:00,55.8,46.0,30.13,NW,321,8.7,9.9,69,0.00,,,0.00,TxWx,2013-03-14 10:14:00,
2013-03-14 06:16:00,55.8,46.0,30.13,NW,321,5.6,11.1,69,0.00,,,0.00,TxWx,2013-03-14 10:16:00,
2013-03-14 06:17:00,56.0,46.0,30.13,NNW,343,5.6,6.2,69,0.00,,,0.00,TxWx,2013-03-14 10:17:00,
2013-03-14 06:19:00,56.0,46.0,30.13,WNW,298,5.0,6.2,69,0.00,,,0.00,TxWx,2013-03-14 10:19:00,
2013-03-14 06:22:00,55.9,46.0,30.13,WNW,298,6.8,6.8,69,0.00,,,0.00,TxWx,2013-03-14 10:22:00,
2013-03-14 06:23:00,55.9,46.0,30.13,NW,321,8.7,8.7,68,0.00,,,0.00,TxWx,2013-03-14 10:23:00,
2013-03-14 06:24:00,56.0,46.0,30.13,WNW,298,9.9,9.9,68,0.00,,,0.00,TxWx,2013-03-14 10:24:00,
2013-03-14 06:28:00,56.0,45.0,30.13,NW,321,6.8,7.4,68,0.00,,,0.00,TxWx,2013-03-14 10:28:00,
2013-03-14 06:29:00,56.0,45.0,30.14,NNW,343,8.7,10.5,68,0.00,,,0.00,TxWx,2013-03-14 10:29:00,
2013-03-14 06:30:00,56.0,45.0,30.14,North,6,7.4,7.4,67,0.00,,,0.00,TxWx,2013-03-14 10:30:00,
2013-03-14 06:33:00,56.0,45.0,30.14,NNW,343,6.8,7.4,67,0.00,,,0.00,TxWx,2013-03-14 10:33:00,
2013-03-14 06:34:00,56.0,45.0,30.14,WNW,298,9.9,10.5,67,0.00,,,0.00,TxWx,2013-03-14 10:34:00,
2013-03-14 06:36:00,56.0,45.0,30.14,West,276,11.8,13.6,67,0.00,,,0.00,TxWx,2013-03-14 10:36:00,
2013-03-14 06:38:00,56.0,45.0,30.14,WNW,298,5.0,5.0,67,0.00,,,0.00,TxWx,2013-03-14 10:38:00,
2013-03-14 06:40:00,56.0,45.0,30.14,NW,321,5.6,6.2,67,0.00,,,0.00,TxWx,2013-03-14 10:40:00,
2013-03-14 06:41:00,56.0,45.0,30.14,NW,321,4.3,4.3,67,0.00,,,0.00,TxWx,2013-03-14 10:41:00,
2013-03-14 06:43:00,56.2,45.0,30.14,NW,321,10.5,10.5,68,0.00,,,0.00,TxWx,2013-03-14 10:43:00,
2013-03-14 06:44:00,56.1,45.0,30.14,NNW,343,6.8,6.8,67,0.00,,,0.00,TxWx,2013-03-14 10:44:00,
2013-03-14 06:45:00,56.0,45.0,30.14,NW,321,7.4,9.3,67,0.00,,,0.00,TxWx,2013-03-14 10:45:00,
2013-03-14 06:47:00,56.1,45.0,30.14,North,6,6.2,7.4,67,0.00,,,0.00,TxWx,2013-03-14 10:47:00,
2013-03-14 06:48:00,56.0,45.0,30.14,NW,321,4.3,5.0,67,0.00,,,0.00,TxWx,2013-03-14 10:48:00,
2013-03-14 06:49:00,56.1,45.0,30.14,NNE,28,5.6,6.8,67,0.00,,,0.00,TxWx,2013-03-14 10:49:00,
2013-03-14 06:52:00,56.1,45.0,30.14,NW,321,4.3,5.0,66,0.00,,,0.00,TxWx,2013-03-14 10:52:00,
2013-03-14 06:53:00,56.1,45.0,30.14,NW,321,6.2,6.8,66,0.00,,,0.00,TxWx,2013-03-14 10:53:00,
2013-03-14 06:54:00,56.1,45.0,30.14,NNW,343,4.3,4.3,66,0.00,,,0.00,TxWx,2013-03-14 10:54:00,
2013-03-14 06:55:00,56.1,45.0,30.14,NNW,343,8.0,8.0,66,0.00,,,0.00,TxWx,2013-03-14 10:55:00,
2013-03-14 06:58:00,55.9,44.0,30.14,NNW,343,5.6,8.7,64,0.00,,,0.00,TxWx,2013-03-14 10:58:00,
2013-03-14 07:00:00,56.1,45.0,30.15,NNW,343,6.2,6.2,66,0.00,,,0.00,TxWx,2013-03-14 11:00:00,
2013-03-14 07:01:00,56.0,44.0,30.15,NNW,343,8.7,8.7,65,0.00,,,0.00,TxWx,2013-03-14 11:01:00,
2013-03-14 07:06:00,56.0,44.0,30.15,WNW,298,11.1,11.1,64,0.00,,,0.00,TxWx,2013-03-14 11:06:00,
2013-03-14 07:07:00,56.0,44.0,30.15,NW,321,9.9,11.1,64,0.00,,,0.00,TxWx,2013-03-14 11:07:00,
2013-03-14 07:08:00,56.0,43.0,30.15,NNW,343,5.0,6.8,63,0.00,,,0.00,TxWx,2013-03-14 11:08:00,
2013-03-14 07:11:00,56.1,44.0,30.15,NNW,343,9.3,9.3,64,0.00,,,0.00,TxWx,2013-03-14 11:11:00,
2013-03-14 07:12:00,56.1,44.0,30.14,NNW,343,8.7,9.9,63,0.00,,,0.00,TxWx,2013-03-14 11:12:00,
2013-03-14 07:14:00,56.2,43.0,30.15,NNW,343,7.4,9.9,62,0.00,,,0.00,TxWx,2013-03-14 11:14:00,
2013-03-14 07:15:00,56.3,43.0,30.15,North,6,9.9,9.9,62,0.00,,,0.00,TxWx,2013-03-14 11:15:00,
2013-03-14 07:16:00,56.2,43.0,30.15,NW,321,6.8,8.0,61,0.00,,,0.00,TxWx,2013-03-14 11:16:00,
2013-03-14 07:18:00,56.3,43.0,30.15,NW,321,5.0,6.2,62,0.00,,,0.00,TxWx,2013-03-14 11:18:00,
2013-03-14 07:19:00,56.1,42.0,30.15,NNW,343,5.6,6.8,61,0.00,,,0.00,TxWx,2013-03-14 11:19:00,
2013-03-14 07:21:00,56.3,43.0,30.16,North,6,7.4,7.4,62,0.00,,,0.00,TxWx,2013-03-14 11:21:00,
2013-03-14 07:22:00,56.2,43.0,30.15,NNW,343,7.4,8.7,61,0.00,,,0.00,TxWx,2013-03-14 11:22:00,
2013-03-14 07:25:00,56.2,42.0,30.16,NW,321,6.8,6.8,61,0.00,,,0.00,TxWx,2013-03-14 11:25:00,
2013-03-14 07:27:00,56.2,42.0,30.16,WNW,298,7.4,7.4,60,0.00,,,0.00,TxWx,2013-03-14 11:27:00,
2013-03-14 07:28:00,56.5,44.0,30.15,NNW,343,5.6,5.6,63,0.00,,,0.00,TxWx,2013-03-14 11:28:00,
2013-03-14 07:31:00,56.4,42.0,30.16,WNW,298,10.5,12.4,60,0.00,,,0.00,TxWx,2013-03-14 11:31:00,
2013-03-14 07:32:00,56.4,42.0,30.16,NW,321,8.7,9.3,60,0.00,,,0.00,TxWx,2013-03-14 11:32:00,
2013-03-14 07:33:00,56.3,42.0,30.16,WNW,298,8.0,9.3,60,0.00,,,0.00,TxWx,2013-03-14 11:33:00,
2013-03-14 07:34:00,56.4,42.0,30.16,NW,321,9.9,13.0,60,0.00,,,0.00,TxWx,2013-03-14 11:34:00,
2013-03-14 07:38:00,56.3,41.0,30.16,North,6,12.4,12.4,58,0.00,,,0.00,TxWx,2013-03-14 11:38:00,
2013-03-14 07:39:00,56.3,41.0,30.16,NW,321,6.2,6.8,57,0.00,,,0.00,TxWx,2013-03-14 11:39:00,
2013-03-14 07:40:00,56.4,42.0,30.16,NW,321,10.5,11.1,59,0.00,,,0.00,TxWx,2013-03-14 11:40:00,
2013-03-14 07:41:00,56.5,42.0,30.16,NNW,343,7.4,8.0,59,0.00,,,0.00,TxWx,2013-03-14 11:41:00,
2013-03-14 07:44:00,56.4,41.0,30.16,WNW,298,9.9,10.5,58,0.00,,,0.00,TxWx,2013-03-14 11:44:00,
2013-03-14 07:46:00,56.4,41.0,30.16,NW,321,8.0,8.0,58,0.00,,,0.00,TxWx,2013-03-14 11:46:00,
2013-03-14 07:50:00,56.5,43.0,30.16,North,6,8.0,8.0,60,0.00,,,0.00,TxWx,2013-03-14 11:50:00,
2013-03-14 07:51:00,56.5,42.0,30.16,NNW,343,9.9,11.1,59,0.00,,,0.00,TxWx,2013-03-14 11:51:00,
2013-03-14 07:52:00,56.4,42.0,30.16,NW,321,10.5,13.0,59,0.00,,,0.00,TxWx,2013-03-14 11:52:00,
2013-03-14 07:55:00,56.6,43.0,30.16,NNW,343,9.9,9.9,59,0.00,,,0.00,TxWx,2013-03-14 11:55:00,
2013-03-14 07:57:00,56.6,42.0,30.16,North,6,9.3,9.3,58,0.00,,,0.00,TxWx,2013-03-14 11:57:00,
2013-03-14 07:59:00,56.6,43.0,30.17,NNW,343,8.7,9.3,59,0.00,,,0.00,TxWx,2013-03-14 11:59:00,
2013-03-14 08:00:00,56.7,43.0,30.17,NW,321,9.3,9.3,59,0.00,,,0.00,TxWx,2013-03-14 12:00:00,
2013-03-14 08:02:00,56.7,43.0,30.16,NNW,343,7.4,8.7,59,0.00,,,0.00,TxWx,2013-03-14 12:02:00,
2013-03-14 08:06:00,56.8,43.0,30.16,North,6,8.7,8.7,60,0.00,,,0.00,TxWx,2013-03-14 12:06:00,
2013-03-14 08:07:00,56.8,43.0,30.17,NW,321,8.0,8.0,59,0.00,,,0.00,TxWx,2013-03-14 12:07:00,
2013-03-14 08:12:00,57.0,43.0,30.17,WNW,298,8.7,10.5,59,0.00,,,0.00,TxWx,2013-03-14 12:12:00,
2013-03-14 08:13:00,57.0,43.0,30.17,NNW,343,8.0,9.3,59,0.00,,,0.00,TxWx,2013-03-14 12:13:00,
2013-03-14 08:15:00,57.0,43.0,30.17,NNW,343,11.1,11.1,59,0.00,,,0.00,TxWx,2013-03-14 12:15:00,
2013-03-14 08:18:00,57.0,42.0,30.17,NW,321,8.0,8.0,58,0.00,,,0.00,TxWx,2013-03-14 12:18:00,
2013-03-14 08:20:00,57.0,42.0,30.17,NW,321,8.0,8.0,57,0.00,,,0.00,TxWx,2013-03-14 12:20:00,
2013-03-14 08:23:00,57.0,42.0,30.17,NNW,343,11.1,11.1,57,0.00,,,0.00,TxWx,2013-03-14 12:23:00,
2013-03-14 08:25:00,57.1,42.0,30.18,NNW,343,8.0,8.0,57,0.00,,,0.00,TxWx,2013-03-14 12:25:00,
2013-03-14 08:26:00,57.1,42.0,30.18,West,276,6.8,7.4,57,0.00,,,0.00,TxWx,2013-03-14 12:26:00,
2013-03-14 08:29:00,57.1,42.0,30.18,NW,321,6.8,8.0,57,0.00,,,0.00,TxWx,2013-03-14 12:29:00,
2013-03-14 08:31:00,57.0,42.0,30.18,NW,321,11.1,11.1,58,0.00,,,0.00,TxWx,2013-03-14 12:31:00,
2013-03-14 08:32:00,57.0,42.0,30.18,NNW,343,7.4,7.4,57,0.00,,,0.00,TxWx,2013-03-14 12:32:00,
2013-03-14 08:35:00,57.1,43.0,30.18,North,6,5.0,5.6,59,0.00,,,0.00,TxWx,2013-03-14 12:35:00,
2013-03-14 08:39:00,57.3,43.0,30.19,NNW,343,5.6,7.4,60,0.00,,,0.00,TxWx,2013-03-14 12:39:00,
2013-03-14 08:40:00,57.2,43.0,30.18,WNW,298,5.6,5.6,59,0.00,,,0.00,TxWx,2013-03-14 12:40:00,
2013-03-14 08:41:00,57.2,43.0,30.19,NW,321,5.6,6.2,59,0.00,,,0.00,TxWx,2013-03-14 12:41:00,
2013-03-14 08:44:00,57.3,43.0,30.19,North,6,5.6,5.6,60,0.00,,,0.00,TxWx,2013-03-14 12:44:00,
2013-03-14 08:45:00,57.3,43.0,30.19,NW,321,5.6,5.6,60,0.00,,,0.00,TxWx,2013-03-14 12:45:00,
2013-03-14 08:46:00,57.2,43.0,30.19,NW,321,5.6,5.6,60,0.00,,,0.00,TxWx,2013-03-14 12:46:00,
2013-03-14 08:47:00,57.2,43.0,30.19,North,6,3.7,5.0,59,0.00,,,0.00,TxWx,2013-03-14 12:47:00,
2013-03-14 08:50:00,57.6,45.0,30.19,NW,321,4.3,6.2,61,0.00,,,0.00,TxWx,2013-03-14 12:50:00,
2013-03-14 08:51:00,57.6,45.0,30.19,NNW,343,8.0,9.9,61,0.00,,,0.00,TxWx,2013-03-14 12:51:00,
2013-03-14 08:53:00,57.8,45.0,30.19,NW,321,6.8,6.8,62,0.00,,,0.00,TxWx,2013-03-14 12:53:00,
2013-03-14 08:56:00,57.9,45.0,30.19,NW,321,6.8,9.3,61,0.00,,,0.00,TxWx,2013-03-14 12:56:00,
2013-03-14 08:57:00,57.9,45.0,30.19,NW,321,6.2,6.2,61,0.00,,,0.00,TxWx,2013-03-14 12:57:00,
2013-03-14 08:58:00,58.1,45.0,30.19,NW,321,5.6,5.6,62,0.00,,,0.00,TxWx,2013-03-14 12:58:00,
2013-03-14 09:02:00,58.1,45.0,30.19,WNW,298,7.4,8.7,61,0.00,,,0.00,TxWx,2013-03-14 13:02:00,
2013-03-14 09:04:00,58.4,45.0,30.19,WNW,298,7.4,7.4,63,0.00,,,0.00,TxWx,2013-03-14 13:04:00,
2013-03-14 09:05:00,58.2,45.0,30.19,NW,321,6.8,9.3,62,0.00,,,0.00,TxWx,2013-03-14 13:05:00,
2013-03-14 09:08:00,58.5,45.0,30.20,NNW,343,4.3,4.3,62,0.00,,,0.00,TxWx,2013-03-14 13:08:00,
2013-03-14 09:09:00,58.8,46.0,30.20,West,276,3.7,3.7,63,0.00,,,0.00,TxWx,2013-03-14 13:09:00,
2013-03-14 09:10:00,58.8,47.0,30.19,North,6,5.0,7.4,64,0.00,,,0.00,TxWx,2013-03-14 13:10:00,
2013-03-14 09:11:00,58.6,46.0,30.19,NW,321,6.2,7.4,63,0.00,,,0.00,TxWx,2013-03-14 13:11:00,
2013-03-14 09:14:00,58.8,46.0,30.19,NW,321,5.0,6.2,62,0.00,,,0.00,TxWx,2013-03-14 13:14:00,
2013-03-14 09:15:00,58.8,46.0,30.20,NW,321,5.6,6.2,62,0.00,,,0.00,TxWx,2013-03-14 13:15:00,
2013-03-14 09:16:00,58.9,46.0,30.20,NW,321,4.3,4.3,62,0.00,,,0.00,TxWx,2013-03-14 13:16:00,
2013-03-14 09:20:00,59.1,46.0,30.20,NW,321,7.4,8.0,62,0.00,,,0.00,TxWx,2013-03-14 13:20:00,
2013-03-14 09:21:00,59.3,46.0,30.20,NNW,343,4.3,4.3,63,0.00,,,0.00,TxWx,2013-03-14 13:21:00,
2013-03-14 09:22:00,59.2,46.0,30.20,NW,321,8.0,9.3,63,0.00,,,0.00,TxWx,2013-03-14 13:22:00,
2013-03-14 09:27:00,59.5,46.0,30.20,NW,321,4.3,5.0,63,0.00,,,0.00,TxWx,2013-03-14 13:27:00,
2013-03-14 09:28:00,59.2,45.0,30.20,North,6,11.8,11.8,61,0.00,,,0.00,TxWx,2013-03-14 13:28:00,
2013-03-14 09:29:00,59.4,45.0,30.20,WNW,298,5.0,5.0,61,0.00,,,0.00,TxWx,2013-03-14 13:29:00,
2013-03-14 09:33:00,59.7,47.0,30.20,NNE,28,5.0,5.6,62,0.00,,,0.00,TxWx,2013-03-14 13:33:00,
2013-03-14 09:34:00,59.8,47.0,30.20,NW,321,6.2,6.2,62,0.00,,,0.00,TxWx,2013-03-14 13:34:00,
2013-03-14 09:36:00,60.0,47.0,30.20,NW,321,6.2,6.2,63,0.00,,,0.00,TxWx,2013-03-14 13:36:00,
2013-03-14 09:38:00,60.0,46.0,30.20,WNW,298,6.2,6.2,61,0.00,,,0.00,TxWx,2013-03-14 13:38:00,
2013-03-14 09:40:00,60.3,47.0,30.20,WNW,298,6.2,6.2,62,0.00,,,0.00,TxWx,2013-03-14 13:40:00,
2013-03-14 09:41:00,60.4,47.0,30.20,NW,321,2.5,2.5,63,0.00,,,0.00,TxWx,2013-03-14 13:41:00,
2013-03-14 09:43:00,60.3,46.0,30.20,NW,321,4.3,6.2,61,0.00,,,0.00,TxWx,2013-03-14 13:43:00,
2013-03-14 09:44:00,60.2,46.0,30.20,NNW,343,9.9,9.9,59,0.00,,,0.00,TxWx,2013-03-14 13:44:00,
2013-03-14 09:46:00,60.4,46.0,30.20,NW,321,7.4,11.1,61,0.00,,,0.00,TxWx,2013-03-14 13:46:00,
2013-03-14 09:47:00,60.4,46.0,30.20,NNW,343,7.4,7.4,60,0.00,,,0.00,TxWx,2013-03-14 13:47:00,
2013-03-14 09:49:00,60.6,47.0,30.20,NW,321,5.6,5.6,60,0.00,,,0.00,TxWx,2013-03-14 13:49:00,
2013-03-14 09:51:00,60.8,47.0,30.20,WNW,298,6.2,6.2,60,0.00,,,0.00,TxWx,2013-03-14 13:51:00,
2013-03-14 09:54:00,61.0,47.0,30.20,NNE,28,5.0,5.6,59,0.00,,,0.00,TxWx,2013-03-14 13:54:00,
2013-03-14 09:56:00,60.9,46.0,30.20,North,6,5.0,7.4,58,0.00,,,0.00,TxWx,2013-03-14 13:56:00,
2013-03-14 09:59:00,61.2,46.0,30.21,NNW,343,5.6,6.8,58,0.00,,,0.00,TxWx,2013-03-14 13:59:00,
2013-03-14 10:02:00,61.3,46.0,30.20,NNW,343,7.4,7.4,57,0.00,,,0.00,TxWx,2013-03-14 14:02:00,
2013-03-14 10:04:00,61.2,45.0,30.20,NNW,343,5.6,5.6,57,0.00,,,0.00,TxWx,2013-03-14 14:04:00,
2013-03-14 10:06:00,61.4,46.0,30.21,North,6,8.7,9.3,57,0.00,,,0.00,TxWx,2013-03-14 14:06:00,
2013-03-14 10:07:00,61.4,46.0,30.20,NNW,343,3.7,3.7,57,0.00,,,0.00,TxWx,2013-03-14 14:07:00,
2013-03-14 10:10:00,61.8,47.0,30.21,NW,321,5.6,5.6,59,0.00,,,0.00,TxWx,2013-03-14 14:10:00,
2013-03-14 10:12:00,61.9,47.0,30.21,NW,321,3.7,4.3,58,0.00,,,0.00,TxWx,2013-03-14 14:12:00,
2013-03-14 10:15:00,62.1,47.0,30.21,NW,321,3.7,3.7,59,0.00,,,0.00,TxWx,2013-03-14 14:15:00,
2013-03-14 10:17:00,61.8,47.0,30.21,NNW,343,5.0,5.6,57,0.00,,,0.00,TxWx,2013-03-14 14:17:00,
2013-03-14 10:19:00,61.9,47.0,30.21,North,6,7.4,7.4,58,0.00,,,0.00,TxWx,2013-03-14 14:19:00,
2013-03-14 10:20:00,61.8,47.0,30.21,NNE,28,10.5,10.5,58,0.00,,,0.00,TxWx,2013-03-14 14:20:00,
2013-03-14 10:21:00,61.9,47.0,30.22,NW,321,5.0,5.0,58,0.00,,,0.00,TxWx,2013-03-14 14:21:00,
2013-03-14 10:24:00,62.2,48.0,30.22,North,6,3.7,4.3,60,0.00,,,0.00,TxWx,2013-03-14 14:24:00,
2013-03-14 10:26:00,62.3,48.0,30.22,NNW,343,7.4,7.4,60,0.00,,,0.00,TxWx,2013-03-14 14:26:00,
2013-03-14 10:27:00,62.2,47.0,30.22,NNW,343,6.8,6.8,59,0.00,,,0.00,TxWx,2013-03-14 14:27:00,
2013-03-14 10:31:00,62.1,47.0,30.22,NW,321,5.6,6.2,59,0.00,,,0.00,TxWx,2013-03-14 14:31:00,
2013-03-14 10:32:00,62.2,48.0,30.22,WNW,298,5.6,5.6,60,0.00,,,0.00,TxWx,2013-03-14 14:32:00,
2013-03-14 10:33:00,62.2,48.0,30.22,NNW,343,8.7,8.7,60,0.00,,,0.00,TxWx,2013-03-14 14:33:00,
2013-03-14 10:34:00,62.0,47.0,30.22,NW,321,6.8,6.8,58,0.00,,,0.00,TxWx,2013-03-14 14:34:00,
2013-03-14 10:38:00,62.3,48.0,30.22,NNW,343,3.7,5.0,60,0.00,,,0.00,TxWx,2013-03-14 14:38:00,
2013-03-14 10:39:00,62.4,48.0,30.22,NNW,343,5.6,6.2,60,0.00,,,0.00,TxWx,2013-03-14 14:39:00,
2013-03-14 10:40:00,62.5,48.0,30.22,NW,321,4.3,4.3,60,0.00,,,0.00,TxWx,2013-03-14 14:40:00,
2013-03-14 10:44:00,62.7,49.0,30.21,NW,321,6.8,7.4,60,0.00,,,0.00,TxWx,2013-03-14 14:44:00,
2013-03-14 10:45:00,62.8,49.0,30.22,NW,321,5.6,5.6,60,0.00,,,0.00,TxWx,2013-03-14 14:45:00,
2013-03-14 10:48:00,62.6,47.0,30.22,NNW,343,5.6,5.6,57,0.00,,,0.00,TxWx,2013-03-14 14:48:00,
2013-03-14 10:50:00,62.8,48.0,30.22,North,6,5.0,5.0,58,0.00,,,0.00,TxWx,2013-03-14 14:50:00,
2013-03-14 10:53:00,62.8,47.0,30.22,WSW,253,3.1,4.3,56,0.00,,,0.00,TxWx,2013-03-14 14:53:00,
2013-03-14 10:54:00,63.0,48.0,30.22,NNW,343,5.6,6.8,58,0.00,,,0.00,TxWx,2013-03-14 14:54:00,
2013-03-14 10:55:00,62.9,47.0,30.22,NW,321,6.8,8.0,56,0.00,,,0.00,TxWx,2013-03-14 14:55:00,
2013-03-14 10:59:00,62.9,47.0,30.22,NNW,343,5.0,5.0,56,0.00,,,0.00,TxWx,2013-03-14 14:59:00,
2013-03-14 11:00:00,62.9,47.0,30.22,NNW,343,5.6,5.6,55,0.00,,,0.00,TxWx,2013-03-14 15:00:00,
2013-03-14 11:05:00,63.6,47.0,30.22,North,6,6.2,6.2,55,0.00,,,0.00,TxWx,2013-03-14 15:05:00,
2013-03-14 11:06:00,63.6,47.0,30.22,NNW,343,8.7,9.3,55,0.00,,,0.00,TxWx,2013-03-14 15:06:00,
2013-03-14 11:07:00,63.4,46.0,30.22,NNE,28,5.0,7.4,54,0.00,,,0.00,TxWx,2013-03-14 15:07:00,
2013-03-14 11:11:00,63.6,46.0,30.22,NW,321,7.4,8.0,53,0.00,,,0.00,TxWx,2013-03-14 15:11:00,
2013-03-14 11:12:00,63.6,45.0,30.22,NNE,28,5.0,5.0,51,0.00,,,0.00,TxWx,2013-03-14 15:12:00,
2013-03-14 11:13:00,63.9,45.0,30.22,NNW,343,5.6,5.6,51,0.00,,,0.00,TxWx,2013-03-14 15:13:00,
2013-03-14 11:14:00,64.0,45.0,30.22,NW,321,5.6,6.8,50,0.00,,,0.00,TxWx,2013-03-14 15:14:00,
2013-03-14 11:16:00,64.1,45.0,30.22,NW,321,8.7,8.7,51,0.00,,,0.00,TxWx,2013-03-14 15:16:00,
2013-03-14 11:18:00,64.0,46.0,30.22,WNW,298,6.2,6.2,52,0.00,,,0.00,TxWx,2013-03-14 15:18:00,
2013-03-14 11:19:00,63.9,46.0,30.22,NE,51,6.2,11.1,52,0.00,,,0.00,TxWx,2013-03-14 15:19:00,
2013-03-14 11:21:00,64.0,46.0,30.21,North,6,6.8,6.8,53,0.00,,,0.00,TxWx,2013-03-14 15:21:00,
2013-03-14 11:24:00,64.3,46.0,30.21,NNW,343,4.3,4.3,52,0.00,,,0.00,TxWx,2013-03-14 15:24:00,
2013-03-14 11:25:00,64.3,45.0,30.21,NNW,343,7.4,7.4,51,0.00,,,0.00,TxWx,2013-03-14 15:25:00,
2013-03-14 11:27:00,64.4,45.0,30.21,NNW,343,6.2,6.2,50,0.00,,,0.00,TxWx,2013-03-14 15:27:00,
2013-03-14 11:29:00,64.3,43.0,30.21,North,6,5.6,5.6,47,0.00,,,0.00,TxWx,2013-03-14 15:29:00,
2013-03-14 11:32:00,64.3,44.0,30.21,NNW,343,3.1,3.1,49,0.00,,,0.00,TxWx,2013-03-14 15:32:00,
2013-03-14 11:34:00,65.0,46.0,30.21,NNE,28,10.5,11.1,50,0.00,,,0.00,TxWx,2013-03-14 15:34:00,
2013-03-14 11:35:00,65.2,47.0,30.22,NW,321,4.3,4.3,52,0.00,,,0.00,TxWx,2013-03-14 15:35:00,
2013-03-14 11:37:00,64.9,45.0,30.21,NNW,343,8.7,9.3,49,0.00,,,0.00,TxWx,2013-03-14 15:37:00,
2013-03-14 11:39:00,64.8,44.0,30.22,NW,321,11.1,11.8,47,0.00,,,0.00,TxWx,2013-03-14 15:39:00,
2013-03-14 11:41:00,64.8,45.0,30.22,NE,51,5.0,6.2,48,0.00,,,0.00,TxWx,2013-03-14 15:41:00,
2013-03-14 11:42:00,64.9,45.0,30.21,NNE,28,5.0,6.2,49,0.00,,,0.00,TxWx,2013-03-14 15:42:00,
2013-03-14 11:45:00,65.4,46.0,30.21,East,96,3.7,5.0,50,0.00,,,0.00,TxWx,2013-03-14 15:45:00,
2013-03-14 11:47:00,65.2,45.0,30.21,West,276,3.7,5.0,49,0.00,,,0.00,TxWx,2013-03-14 15:47:00,
2013-03-14 11:48:00,65.4,45.0,30.21,NNW,343,5.6,6.8,48,0.00,,,0.00,TxWx,2013-03-14 15:48:00,
2013-03-14 11:52:00,65.5,49.0,30.21,North,6,3.7,3.7,54,0.00,,,0.00,TxWx,2013-03-14 15:52:00,
2013-03-14 11:53:00,65.5,48.0,30.21,NNW,343,5.0,5.0,53,0.00,,,0.00,TxWx,2013-03-14 15:53:00,
2013-03-14 11:57:00,65.4,47.0,30.21,NNE,28,8.7,8.7,53,0.00,,,0.00,TxWx,2013-03-14 15:57:00,
2013-03-14 11:58:00,65.4,48.0,30.22,South,186,3.1,3.7,54,0.00,,,0.00,TxWx,2013-03-14 15:58:00,
2013-03-14 11:59:00,65.2,47.0,30.21,NNW,343,10.5,11.1,53,0.00,,,0.00,TxWx,2013-03-14 15:59:00,
2013-03-14 12:00:00,65.3,48.0,30.21,NNE,28,8.0,11.1,54,0.00,,,0.00,TxWx,2013-03-14 16:00:00,
2013-03-14 12:02:00,65.1,47.0,30.21,NNW,343,6.2,8.0,53,0.00,,,0.00,TxWx,2013-03-14 16:02:00,
2013-03-14 12:03:00,65.2,47.0,30.21,NNW,343,4.3,7.4,53,0.00,,,0.00,TxWx,2013-03-14 16:03:00,
2013-03-14 12:05:00,65.2,48.0,30.22,NNW,343,8.7,8.7,54,0.00,,,0.00,TxWx,2013-03-14 16:05:00,
2013-03-14 12:07:00,65.3,48.0,30.22,North,6,1.9,1.9,54,0.00,,,0.00,TxWx,2013-03-14 16:07:00,
2013-03-14 12:09:00,65.2,49.0,30.22,North,6,5.6,6.8,57,0.00,,,0.00,TxWx,2013-03-14 16:09:00,
2013-03-14 12:12:00,64.9,47.0,30.22,NW,321,7.4,7.4,53,0.00,,,0.00,TxWx,2013-03-14 16:12:00,
2013-03-14 12:13:00,65.2,48.0,30.22,NNE,28,12.4,12.4,54,0.00,,,0.00,TxWx,2013-03-14 16:13:00,
2013-03-14 12:15:00,64.9,46.0,30.21,NNE,28,8.7,8.7,51,0.00,,,0.00,TxWx,2013-03-14 16:15:00,
2013-03-14 12:17:00,65.5,47.0,30.21,NW,321,9.9,9.9,52,0.00,,,0.00,TxWx,2013-03-14 16:17:00,
2013-03-14 12:18:00,65.1,45.0,30.22,SSW,208,3.1,4.3,49,0.00,,,0.00,TxWx,2013-03-14 16:18:00,
2013-03-14 12:20:00,65.5,46.0,30.22,NE,51,6.8,9.9,49,0.00,,,0.00,TxWx,2013-03-14 16:20:00,
2013-03-14 12:22:00,65.3,46.0,30.21,NNW,343,3.1,4.3,51,0.00,,,0.00,TxWx,2013-03-14 16:22:00,
2013-03-14 12:24:00,65.3,46.0,30.21,ESE,118,9.3,9.3,50,0.00,,,0.00,TxWx,2013-03-14 16:24:00,
2013-03-14 12:26:00,65.2,45.0,30.22,NNE,28,6.8,7.4,49,0.00,,,0.00,TxWx,2013-03-14 16:26:00,
2013-03-14 12:27:00,65.1,45.0,30.22,NNW,343,5.0,6.8,49,0.00,,,0.00,TxWx,2013-03-14 16:27:00,
2013-03-14 12:29:00,64.9,43.0,30.21,NE,51,13.0,13.0,45,0.00,,,0.00,TxWx,2013-03-14 16:29:00,
2013-03-14 12:31:00,65.2,43.0,30.22,North,6,5.6,5.6,45,0.00,,,0.00,TxWx,2013-03-14 16:31:00,
2013-03-14 12:32:00,65.2,43.0,30.22,NNW,343,7.4,8.0,45,0.00,,,0.00,TxWx,2013-03-14 16:32:00,
2013-03-14 12:33:00,65.3,43.0,30.21,NE,51,10.5,11.8,44,0.00,,,0.00,TxWx,2013-03-14 16:33:00,
2013-03-14 12:34:00,65.4,43.0,30.22,NW,321,6.8,6.8,46,0.00,,,0.00,TxWx,2013-03-14 16:34:00,
2013-03-14 12:37:00,65.4,43.0,30.22,WSW,253,5.6,5.6,45,0.00,,,0.00,TxWx,2013-03-14 16:37:00,
2013-03-14 12:39:00,65.5,45.0,30.21,East,96,6.2,6.8,46,0.00,,,0.00,TxWx,2013-03-14 16:39:00,
2013-03-14 12:40:00,65.3,42.0,30.21,ENE,73,3.7,5.0,44,0.00,,,0.00,TxWx,2013-03-14 16:40:00,
2013-03-14 12:43:00,65.5,45.0,30.21,North,6,7.4,8.0,47,0.00,,,0.00,TxWx,2013-03-14 16:43:00,
2013-03-14 12:44:00,65.4,45.0,30.21,North,6,5.6,9.3,48,0.00,,,0.00,TxWx,2013-03-14 16:44:00,
2013-03-14 12:47:00,65.4,45.0,30.21,NNE,28,9.3,9.3,49,0.00,,,0.00,TxWx,2013-03-14 16:47:00,
2013-03-14 12:49:00,65.5,47.0,30.21,WNW,298,5.0,5.0,51,0.00,,,0.00,TxWx,2013-03-14 16:49:00,
2013-03-14 12:50:00,65.5,48.0,30.21,East,96,5.6,6.2,52,0.00,,,0.00,TxWx,2013-03-14 16:50:00,
2013-03-14 12:52:00,65.4,46.0,30.21,North,6,6.8,8.0,50,0.00,,,0.00,TxWx,2013-03-14 16:52:00,
2013-03-14 12:55:00,65.4,46.0,30.21,North,6,8.0,8.0,50,0.00,,,0.00,TxWx,2013-03-14 16:55:00,
2013-03-14 12:56:00,65.3,46.0,30.21,NNE,28,11.8,16.1,51,0.00,,,0.00,TxWx,2013-03-14 16:56:00,
2013-03-14 12:58:00,65.3,46.0,30.21,NW,321,5.6,6.2,51,0.00,,,0.00,TxWx,2013-03-14 16:58:00,
2013-03-14 13:01:00,65.5,46.0,30.21,NNE,28,2.5,5.0,51,0.00,,,0.00,TxWx,2013-03-14 17:01:00,
2013-03-14 13:03:00,65.4,46.0,30.20,NNE,28,8.7,8.7,50,0.00,,,0.00,TxWx,2013-03-14 17:03:00,
2013-03-14 13:04:00,65.4,46.0,30.20,ENE,73,3.1,3.1,51,0.00,,,0.00,TxWx,2013-03-14 17:04:00,
2013-03-14 13:05:00,65.6,47.0,30.21,NW,321,6.2,6.8,51,0.00,,,0.00,TxWx,2013-03-14 17:05:00,
2013-03-14 13:06:00,65.3,46.0,30.20,NNE,28,5.0,5.6,50,0.00,,,0.00,TxWx,2013-03-14 17:06:00,
2013-03-14 13:09:00,65.4,46.0,30.20,North,6,6.8,6.8,50,0.00,,,0.00,TxWx,2013-03-14 17:09:00,
2013-03-14 13:10:00,65.0,45.0,30.20,NE,51,8.0,8.0,48,0.00,,,0.00,TxWx,2013-03-14 17:10:00,
2013-03-14 13:12:00,65.1,45.0,30.21,NNE,28,10.5,14.2,48,0.00,,,0.00,TxWx,2013-03-14 17:12:00,
2013-03-14 13:14:00,65.2,45.0,30.20,North,6,9.3,11.1,49,0.00,,,0.00,TxWx,2013-03-14 17:14:00,
2013-03-14 13:17:00,65.2,45.0,30.20,NNE,28,7.4,8.7,49,0.00,,,0.00,TxWx,2013-03-14 17:17:00,
2013-03-14 13:18:00,65.3,46.0,30.20,NE,51,5.0,8.7,50,0.00,,,0.00,TxWx,2013-03-14 17:18:00,
2013-03-14 13:20:00,65.4,46.0,30.20,WNW,298,8.0,8.0,50,0.00,,,0.00,TxWx,2013-03-14 17:20:00,
2013-03-14 13:23:00,65.5,46.0,30.20,SE,141,3.7,3.7,50,0.00,,,0.00,TxWx,2013-03-14 17:23:00,
2013-03-14 13:24:00,65.5,47.0,30.20,NNW,343,9.9,9.9,50,0.00,,,0.00,TxWx,2013-03-14 17:24:00,
2013-03-14 13:25:00,65.2,46.0,30.20,NNE,28,9.9,9.9,50,0.00,,,0.00,TxWx,2013-03-14 17:25:00,
2013-03-14 13:27:00,65.1,46.0,30.20,NNE,28,10.5,11.8,51,0.00,,,0.00,TxWx,2013-03-14 17:27:00,
2013-03-14 13:30:00,65.2,46.0,30.20,NNW,343,5.6,6.2,50,0.00,,,0.00,TxWx,2013-03-14 17:30:00,
2013-03-14 13:31:00,65.2,45.0,30.20,NW,321,7.4,8.0,49,0.00,,,0.00,TxWx,2013-03-14 17:31:00,
2013-03-14 13:32:00,65.0,46.0,30.20,NW,321,8.7,10.5,50,0.00,,,0.00,TxWx,2013-03-14 17:32:00,
2013-03-14 13:35:00,64.9,46.0,30.20,North,6,5.0,5.0,50,0.00,,,0.00,TxWx,2013-03-14 17:35:00,
2013-03-14 13:37:00,64.9,45.0,30.20,SSW,208,5.6,5.6,49,0.00,,,0.00,TxWx,2013-03-14 17:37:00,
2013-03-14 13:38:00,64.8,44.0,30.19,NW,321,9.9,11.1,47,0.00,,,0.00,TxWx,2013-03-14 17:38:00,
2013-03-14 13:42:00,65.0,46.0,30.19,NNW,343,9.3,9.3,50,0.00,,,0.00,TxWx,2013-03-14 17:42:00,
2013-03-14 13:43:00,65.2,47.0,30.19,ENE,73,6.2,8.0,52,0.00,,,0.00,TxWx,2013-03-14 17:43:00,
2013-03-14 13:44:00,65.1,47.0,30.19,NNW,343,11.8,12.4,52,0.00,,,0.00,TxWx,2013-03-14 17:44:00,
2013-03-14 13:47:00,64.8,46.0,30.19,NNE,28,8.7,9.9,50,0.00,,,0.00,TxWx,2013-03-14 17:47:00,
2013-03-14 13:48:00,65.0,46.0,30.20,NE,51,11.8,11.8,51,0.00,,,0.00,TxWx,2013-03-14 17:48:00,
2013-03-14 13:50:00,65.0,46.0,30.19,NE,51,9.3,9.3,50,0.00,,,0.00,TxWx,2013-03-14 17:50:00,
2013-03-14 13:53:00,64.9,45.0,30.19,NNE,28,6.2,10.5,49,0.00,,,0.00,TxWx,2013-03-14 17:53:00,
2013-03-14 13:54:00,64.8,46.0,30.19,East,96,6.2,7.4,50,0.00,,,0.00,TxWx,2013-03-14 17:54:00,
2013-03-14 13:56:00,65.0,45.0,30.19,NNE,28,5.0,5.0,49,0.00,,,0.00,TxWx,2013-03-14 17:56:00,
2013-03-14 13:59:00,65.2,44.0,30.19,NNW,343,3.7,3.7,47,0.00,,,0.00,TxWx,2013-03-14 17:59:00,
2013-03-14 14:02:00,64.9,46.0,30.19,SSE,163,5.0,11.8,50,0.00,,,0.00,TxWx,2013-03-14 18:02:00,
2013-03-14 14:03:00,64.9,46.0,30.19,East,96,4.3,4.3,50,0.00,,,0.00,TxWx,2013-03-14 18:03:00,
2013-03-14 14:04:00,65.1,46.0,30.19,NE,51,8.0,8.0,51,0.00,,,0.00,TxWx,2013-03-14 18:04:00,
2013-03-14 14:05:00,64.7,46.0,30.19,NNE,28,8.7,8.7,50,0.00,,,0.00,TxWx,2013-03-14 18:05:00,
2013-03-14 14:09:00,64.7,44.0,30.19,ENE,73,4.3,5.6,47,0.00,,,0.00,TxWx,2013-03-14 18:09:00,
2013-03-14 14:10:00,64.9,45.0,30.18,NNE,28,10.5,12.4,48,0.00,,,0.00,TxWx,2013-03-14 18:10:00,
2013-03-14 14:11:00,64.8,45.0,30.19,North,6,11.8,11.8,48,0.00,,,0.00,TxWx,2013-03-14 18:11:00,
2013-03-14 14:15:00,65.2,45.0,30.18,WSW,253,8.7,8.7,49,0.00,,,0.00,TxWx,2013-03-14 18:15:00,
2013-03-14 14:16:00,64.9,45.0,30.18,NNE,28,7.4,8.7,48,0.00,,,0.00,TxWx,2013-03-14 18:16:00,
2013-03-14 14:19:00,64.9,44.0,30.18,NNW,343,8.7,9.3,47,0.00,,,0.00,TxWx,2013-03-14 18:19:00,
2013-03-14 14:21:00,65.2,45.0,30.18,NNE,28,5.6,6.2,48,0.00,,,0.00,TxWx,2013-03-14 18:21:00,
2013-03-14 14:22:00,65.3,45.0,30.18,North,6,4.3,6.2,48,0.00,,,0.00,TxWx,2013-03-14 18:22:00,
2013-03-14 14:25:00,65.0,45.0,30.18,NNE,28,8.7,8.7,49,0.00,,,0.00,TxWx,2013-03-14 18:25:00,
2013-03-14 14:26:00,64.9,45.0,30.18,NNE,28,11.1,11.1,48,0.00,,,0.00,TxWx,2013-03-14 18:26:00,
2013-03-14 14:27:00,65.1,46.0,30.18,NNE,28,9.3,9.3,50,0.00,,,0.00,TxWx,2013-03-14 18:27:00,
2013-03-14 14:28:00,65.1,45.0,30.18,North,6,11.8,13.6,49,0.00,,,0.00,TxWx,2013-03-14 18:28:00,
2013-03-14 14:31:00,65.2,46.0,30.18,SW,231,2.5,3.7,50,0.00,,,0.00,TxWx,2013-03-14 18:31:00,
2013-03-14 14:32:00,65.3,46.0,30.18,North,6,2.5,5.0,51,0.00,,,0.00,TxWx,2013-03-14 18:32:00,
2013-03-14 14:33:00,65.0,45.0,30.18,NE,51,9.3,9.9,49,0.00,,,0.00,TxWx,2013-03-14 18:33:00,
2013-03-14 14:34:00,65.0,45.0,30.18,ENE,73,8.7,14.9,48,0.00,,,0.00,TxWx,2013-03-14 18:34:00,
2013-03-14 14:37:00,65.2,44.0,30.18,NE,51,5.6,6.2,46,0.00,,,0.00,TxWx,2013-03-14 18:37:00,
2013-03-14 14:39:00,65.2,46.0,30.17,NE,51,6.2,6.8,51,0.00,,,0.00,TxWx,2013-03-14 18:39:00,
2013-03-14 14:40:00,64.9,46.0,30.17,ENE,73,5.6,8.7,50,0.00,,,0.00,TxWx,2013-03-14 18:40:00,
2013-03-14 14:43:00,65.1,46.0,30.17,NNE,28,6.8,6.8,50,0.00,,,0.00,TxWx,2013-03-14 18:43:00,
2013-03-14 14:45:00,65.3,47.0,30.17,SE,141,4.3,5.6,52,0.00,,,0.00,TxWx,2013-03-14 18:45:00,
2013-03-14 14:46:00,65.2,46.0,30.17,North,6,10.5,10.5,51,0.00,,,0.00,TxWx,2013-03-14 18:46:00,
2013-03-14 14:49:00,65.3,46.0,30.17,East,96,10.5,10.5,50,0.00,,,0.00,TxWx,2013-03-14 18:49:00,
2013-03-14 14:51:00,65.5,47.0,30.17,North,6,2.5,2.5,53,0.00,,,0.00,TxWx,2013-03-14 18:51:00,
2013-03-14 14:53:00,65.2,47.0,30.17,NW,321,6.2,6.2,53,0.00,,,0.00,TxWx,2013-03-14 18:53:00,
2013-03-14 14:54:00,65.2,47.0,30.17,NE,51,6.8,6.8,52,0.00,,,0.00,TxWx,2013-03-14 18:54:00,
2013-03-14 14:55:00,65.3,46.0,30.17,ESE,118,6.8,6.8,51,0.00,,,0.00,TxWx,2013-03-14 18:55:00,
2013-03-14 14:56:00,65.3,46.0,30.17,NE,51,5.6,5.6,51,0.00,,,0.00,TxWx,2013-03-14 18:56:00,
2013-03-14 14:59:00,65.0,45.0,30.17,NNE,28,10.5,10.5,49,0.00,,,0.00,TxWx,2013-03-14 18:59:00,
2013-03-14 15:00:00,65.5,48.0,30.17,West,276,3.7,4.3,52,0.00,,,0.00,TxWx,2013-03-14 19:00:00,
2013-03-14 15:02:00,65.4,46.0,30.17,WSW,253,3.1,4.3,51,0.00,,,0.00,TxWx,2013-03-14 19:02:00,
2013-03-14 15:06:00,65.5,48.0,30.17,NNW,343,3.7,3.7,54,0.00,,,0.00,TxWx,2013-03-14 19:06:00,
2013-03-14 15:07:00,65.5,48.0,30.17,NW,321,3.7,3.7,52,0.00,,,0.00,TxWx,2013-03-14 19:07:00,
2013-03-14 15:08:00,65.2,46.0,30.17,NNW,343,6.8,6.8,50,0.00,,,0.00,TxWx,2013-03-14 19:08:00,
2013-03-14 15:12:00,64.9,47.0,30.17,NNE,28,6.8,8.7,53,0.00,,,0.00,TxWx,2013-03-14 19:12:00,
2013-03-14 15:13:00,65.1,48.0,30.17,NNW,343,8.7,9.9,54,0.00,,,0.00,TxWx,2013-03-14 19:13:00,
2013-03-14 15:18:00,65.5,49.0,30.17,North,6,6.2,6.2,54,0.00,,,0.00,TxWx,2013-03-14 19:18:00,
2013-03-14 15:19:00,65.3,47.0,30.17,NNW,343,9.3,11.1,53,0.00,,,0.00,TxWx,2013-03-14 19:19:00,
2013-03-14 15:20:00,65.3,48.0,30.17,East,96,3.1,5.0,54,0.00,,,0.00,TxWx,2013-03-14 19:20:00,
2013-03-14 15:24:00,65.3,48.0,30.17,North,6,9.9,11.1,55,0.00,,,0.00,TxWx,2013-03-14 19:24:00,
2013-03-14 15:25:00,65.1,48.0,30.17,ESE,118,6.8,8.7,54,0.00,,,0.00,TxWx,2013-03-14 19:25:00,
2013-03-14 15:29:00,65.2,46.0,30.16,NNE,28,6.2,9.3,51,0.00,,,0.00,TxWx,2013-03-14 19:29:00,
2013-03-14 15:30:00,65.0,45.0,30.16,NNW,343,8.7,8.7,48,0.00,,,0.00,TxWx,2013-03-14 19:30:00,
2013-03-14 15:31:00,65.1,45.0,30.16,NE,51,5.0,8.0,49,0.00,,,0.00,TxWx,2013-03-14 19:31:00,
2013-03-14 15:36:00,65.0,46.0,30.16,North,6,5.6,6.8,51,0.00,,,0.00,TxWx,2013-03-14 19:36:00,
2013-03-14 15:37:00,64.8,47.0,30.16,WNW,298,8.0,14.9,52,0.00,,,0.00,TxWx,2013-03-14 19:37:00,
2013-03-14 15:41:00,64.7,47.0,30.16,SE,141,6.2,8.7,52,0.00,,,0.00,TxWx,2013-03-14 19:41:00,
2013-03-14 15:42:00,64.8,47.0,30.16,NW,321,6.8,6.8,52,0.00,,,0.00,TxWx,2013-03-14 19:42:00,
2013-03-14 15:43:00,64.8,46.0,30.16,NW,321,7.4,7.4,51,0.00,,,0.00,TxWx,2013-03-14 19:43:00,
2013-03-14 15:47:00,65.0,48.0,30.16,North,6,13.0,13.0,54,0.00,,,0.00,TxWx,2013-03-14 19:47:00,
2013-03-14 15:48:00,65.0,47.0,30.16,ENE,73,5.0,5.0,53,0.00,,,0.00,TxWx,2013-03-14 19:48:00,
2013-03-14 15:51:00,65.2,47.0,30.16,NW,321,8.0,8.7,53,0.00,,,0.00,TxWx,2013-03-14 19:51:00,
2013-03-14 15:53:00,65.0,47.0,30.16,SE,141,4.3,5.6,53,0.00,,,0.00,TxWx,2013-03-14 19:53:00,
2013-03-14 15:54:00,64.9,47.0,30.16,NNW,343,6.8,6.8,53,0.00,,,0.00,TxWx,2013-03-14 19:54:00,
2013-03-14 15:55:00,65.1,47.0,30.16,NE,51,5.6,5.6,53,0.00,,,0.00,TxWx,2013-03-14 19:55:00,
2013-03-14 15:56:00,65.0,47.0,30.16,NNW,343,4.3,5.6,52,0.00,,,0.00,TxWx,2013-03-14 19:56:00,
2013-03-14 15:59:00,65.1,47.0,30.16,ENE,73,6.8,6.8,53,0.00,,,0.00,TxWx,2013-03-14 19:59:00,
2013-03-14 16:00:00,65.2,48.0,30.16,NNW,343,5.6,8.0,54,0.00,,,0.00,TxWx,2013-03-14 20:00:00,
2013-03-14 16:03:00,64.8,47.0,30.17,NE,51,9.9,9.9,52,0.00,,,0.00,TxWx,2013-03-14 20:03:00,
2013-03-14 16:04:00,65.0,47.0,30.17,North,6,9.9,11.8,53,0.00,,,0.00,TxWx,2013-03-14 20:04:00,
2013-03-14 16:05:00,65.0,47.0,30.17,South,186,4.3,4.3,53,0.00,,,0.00,TxWx,2013-03-14 20:05:00,
2013-03-14 16:06:00,65.1,48.0,30.17,WNW,298,4.3,4.3,54,0.00,,,0.00,TxWx,2013-03-14 20:06:00,
2013-03-14 16:10:00,65.1,47.0,30.16,NNW,343,5.6,5.6,53,0.00,,,0.00,TxWx,2013-03-14 20:10:00,
2013-03-14 16:11:00,65.3,48.0,30.16,NW,321,6.2,6.2,54,0.00,,,0.00,TxWx,2013-03-14 20:11:00,
2013-03-14 16:12:00,65.3,48.0,30.15,East,96,7.4,8.0,54,0.00,,,0.00,TxWx,2013-03-14 20:12:00,
2013-03-14 16:13:00,65.2,47.0,30.16,North,6,9.3,9.3,52,0.00,,,0.00,TxWx,2013-03-14 20:13:00,
2013-03-14 16:16:00,65.0,47.0,30.17,NNE,28,9.9,13.6,52,0.00,,,0.00,TxWx,2013-03-14 20:16:00,
2013-03-14 16:17:00,65.1,47.0,30.16,West,276,5.0,8.7,52,0.00,,,0.00,TxWx,2013-03-14 20:17:00,
2013-03-14 16:18:00,65.0,46.0,30.17,NW,321,2.5,2.5,50,0.00,,,0.00,TxWx,2013-03-14 20:18:00,
2013-03-14 16:22:00,65.0,48.0,30.17,ENE,73,3.7,4.3,54,0.00,,,0.00,TxWx,2013-03-14 20:22:00,
2013-03-14 16:23:00,65.0,47.0,30.17,North,6,9.9,14.2,53,0.00,,,0.00,TxWx,2013-03-14 20:23:00,
2013-03-14 16:25:00,64.9,47.0,30.16,West,276,2.5,3.7,53,0.00,,,0.00,TxWx,2013-03-14 20:25:00,
2013-03-14 16:28:00,65.1,47.0,30.17,NW,321,7.4,11.1,53,0.00,,,0.00,TxWx,2013-03-14 20:28:00,
2013-03-14 16:30:00,64.8,47.0,30.16,WSW,253,6.2,6.2,53,0.00,,,0.00,TxWx,2013-03-14 20:30:00,
2013-03-14 16:31:00,64.9,47.0,30.16,North,6,11.1,11.1,53,0.00,,,0.00,TxWx,2013-03-14 20:31:00,
2013-03-14 16:34:00,65.1,47.0,30.17,NE,51,4.3,4.3,52,0.00,,,0.00,TxWx,2013-03-14 20:34:00,
2013-03-14 16:35:00,64.8,47.0,30.16,NNW,343,12.4,15.5,52,0.00,,,0.00,TxWx,2013-03-14 20:35:00,
2013-03-14 16:36:00,64.9,46.0,30.17,North,6,7.4,8.0,51,0.00,,,0.00,TxWx,2013-03-14 20:36:00,
2013-03-14 16:39:00,64.7,46.0,30.16,NNW,343,10.5,10.5,51,0.00,,,0.00,TxWx,2013-03-14 20:39:00,
2013-03-14 16:41:00,64.3,46.0,30.16,NNE,28,7.4,7.4,52,0.00,,,0.00,TxWx,2013-03-14 20:41:00,
2013-03-14 16:42:00,64.5,47.0,30.17,NE,51,2.5,3.1,52,0.00,,,0.00,TxWx,2013-03-14 20:42:00,
2013-03-14 16:45:00,64.2,45.0,30.17,SW,231,5.6,6.8,51,0.00,,,0.00,TxWx,2013-03-14 20:45:00,
2013-03-14 16:46:00,64.5,46.0,30.17,SSE,163,6.8,6.8,53,0.00,,,0.00,TxWx,2013-03-14 20:46:00,
2013-03-14 16:47:00,64.4,46.0,30.17,NNW,343,8.7,10.5,53,0.00,,,0.00,TxWx,2013-03-14 20:47:00,
2013-03-14 16:50:00,64.2,44.0,30.16,NNE,28,5.0,6.8,49,0.00,,,0.00,TxWx,2013-03-14 20:50:00,
2013-03-14 16:52:00,64.0,43.0,30.16,NNW,343,13.6,13.6,47,0.00,,,0.00,TxWx,2013-03-14 20:52:00,
2013-03-14 16:55:00,63.8,45.0,30.16,NNE,28,6.8,6.8,50,0.00,,,0.00,TxWx,2013-03-14 20:55:00,
2013-03-14 16:56:00,63.4,43.0,30.16,North,6,9.9,11.8,49,0.00,,,0.00,TxWx,2013-03-14 20:56:00,
2013-03-14 16:57:00,63.8,45.0,30.15,NNE,28,5.0,5.0,50,0.00,,,0.00,TxWx,2013-03-14 20:57:00,
2013-03-14 17:00:00,63.9,47.0,30.15,NE,51,8.0,8.0,55,0.00,,,0.00,TxWx,2013-03-14 21:00:00,
2013-03-14 17:01:00,63.9,47.0,30.16,ENE,73,3.7,3.7,54,0.00,,,0.00,TxWx,2013-03-14 21:01:00,
2013-03-14 17:03:00,63.8,46.0,30.16,ENE,73,2.5,3.7,53,0.00,,,0.00,TxWx,2013-03-14 21:03:00,
2013-03-14 17:06:00,64.1,45.0,30.16,ENE,73,4.3,4.3,51,0.00,,,0.00,TxWx,2013-03-14 21:06:00,
2013-03-14 17:08:00,63.8,44.0,30.16,NNE,28,7.4,8.0,49,0.00,,,0.00,TxWx,2013-03-14 21:08:00,
2013-03-14 17:12:00,63.6,44.0,30.16,NNW,343,6.2,6.2,49,0.00,,,0.00,TxWx,2013-03-14 21:12:00,
2013-03-14 17:13:00,63.5,44.0,30.16,NNW,343,5.0,5.6,49,0.00,,,0.00,TxWx,2013-03-14 21:13:00,
2013-03-14 17:14:00,63.3,43.0,30.16,NNW,343,8.0,11.1,49,0.00,,,0.00,TxWx,2013-03-14 21:14:00,
2013-03-14 17:16:00,63.6,45.0,30.16,WNW,298,6.8,8.7,51,0.00,,,0.00,TxWx,2013-03-14 21:16:00,
2013-03-14 17:17:00,63.6,45.0,30.16,North,6,4.3,4.3,50,0.00,,,0.00,TxWx,2013-03-14 21:17:00,
2013-03-14 17:19:00,63.2,45.0,30.16,NNW,343,9.9,10.5,51,0.00,,,0.00,TxWx,2013-03-14 21:19:00,
2013-03-14 17:20:00,63.3,45.0,30.16,North,6,6.2,8.0,51,0.00,,,0.00,TxWx,2013-03-14 21:20:00,
2013-03-14 17:22:00,63.2,45.0,30.16,North,6,13.0,13.6,51,0.00,,,0.00,TxWx,2013-03-14 21:22:00,
2013-03-14 17:24:00,63.3,45.0,30.16,North,6,9.3,9.9,51,0.00,,,0.00,TxWx,2013-03-14 21:24:00,
2013-03-14 17:25:00,63.2,44.0,30.16,NNE,28,13.0,13.0,51,0.00,,,0.00,TxWx,2013-03-14 21:25:00,
2013-03-14 17:26:00,63.6,45.0,30.16,NNE,28,5.0,7.4,51,0.00,,,0.00,TxWx,2013-03-14 21:26:00,
2013-03-14 17:27:00,63.3,45.0,30.16,North,6,5.6,5.6,51,0.00,,,0.00,TxWx,2013-03-14 21:27:00,
2013-03-14 17:29:00,62.9,45.0,30.16,NNW,343,15.5,15.5,52,0.00,,,0.00,TxWx,2013-03-14 21:29:00,
2013-03-14 17:30:00,62.7,45.0,30.17,North,6,13.6,16.7,53,0.00,,,0.00,TxWx,2013-03-14 21:30:00,
2013-03-14 17:31:00,62.9,46.0,30.17,NW,321,8.7,9.3,53,0.00,,,0.00,TxWx,2013-03-14 21:31:00,
2013-03-14 17:34:00,62.7,46.0,30.17,NNW,343,7.4,7.4,53,0.00,,,0.00,TxWx,2013-03-14 21:34:00,
2013-03-14 17:37:00,62.7,46.0,30.17,NW,321,12.4,12.4,55,0.00,,,0.00,TxWx,2013-03-14 21:37:00,
2013-03-14 17:40:00,63.0,46.0,30.17,WNW,298,5.0,6.2,54,0.00,,,0.00,TxWx,2013-03-14 21:40:00,
2013-03-14 17:42:00,63.1,47.0,30.17,NNE,28,6.8,8.0,56,0.00,,,0.00,TxWx,2013-03-14 21:42:00,
2013-03-14 17:43:00,63.2,47.0,30.17,North,6,7.4,8.0,56,0.00,,,0.00,TxWx,2013-03-14 21:43:00,
2013-03-14 17:46:00,63.2,46.0,30.17,NNW,343,6.2,7.4,55,0.00,,,0.00,TxWx,2013-03-14 21:46:00,
2013-03-14 17:48:00,63.2,47.0,30.16,NNW,343,5.0,6.2,56,0.00,,,0.00,TxWx,2013-03-14 21:48:00,
2013-03-14 17:52:00,63.6,48.0,30.17,NNW,343,3.7,6.2,57,0.00,,,0.00,TxWx,2013-03-14 21:52:00,
2013-03-14 17:54:00,63.3,46.0,30.16,NW,321,6.2,7.4,55,0.00,,,0.00,TxWx,2013-03-14 21:54:00,
2013-03-14 17:55:00,63.2,46.0,30.17,NE,51,6.8,6.8,54,0.00,,,0.00,TxWx,2013-03-14 21:55:00,
2013-03-14 17:57:00,62.9,46.0,30.17,NNE,28,7.4,8.0,54,0.00,,,0.00,TxWx,2013-03-14 21:57:00,
2013-03-14 17:58:00,62.7,46.0,30.17,NNW,343,7.4,7.4,54,0.00,,,0.00,TxWx,2013-03-14 21:58:00,
2013-03-14 17:59:00,62.8,46.0,30.17,North,6,6.2,9.3,53,0.00,,,0.00,TxWx,2013-03-14 21:59:00,
2013-03-14 18:03:00,62.9,47.0,30.17,NNW,343,8.0,8.0,57,0.00,,,0.00,TxWx,2013-03-14 22:03:00,
2013-03-14 18:04:00,62.8,47.0,30.17,North,6,10.5,13.0,57,0.00,,,0.00,TxWx,2013-03-14 22:04:00,
2013-03-14 18:06:00,62.6,47.0,30.17,North,6,3.1,4.3,56,0.00,,,0.00,TxWx,2013-03-14 22:06:00,
2013-03-14 18:08:00,62.6,47.0,30.17,NNW,343,11.8,11.8,55,0.00,,,0.00,TxWx,2013-03-14 22:08:00,
2013-03-14 18:11:00,62.8,47.0,30.17,North,6,2.5,3.1,57,0.00,,,0.00,TxWx,2013-03-14 22:11:00,
2013-03-14 18:13:00,62.4,47.0,30.17,NNW,343,11.1,11.1,58,0.00,,,0.00,TxWx,2013-03-14 22:13:00,
2013-03-14 18:14:00,62.4,47.0,30.17,NNW,343,6.8,8.0,57,0.00,,,0.00,TxWx,2013-03-14 22:14:00,
2013-03-14 18:16:00,62.7,48.0,30.17,NW,321,9.3,9.3,58,0.00,,,0.00,TxWx,2013-03-14 22:16:00,
2013-03-14 18:19:00,62.7,48.0,30.17,WNW,298,9.3,11.8,58,0.00,,,0.00,TxWx,2013-03-14 22:19:00,
2013-03-14 18:21:00,62.6,47.0,30.17,NW,321,5.0,5.0,57,0.00,,,0.00,TxWx,2013-03-14 22:21:00,
2013-03-14 18:24:00,62.5,49.0,30.17,NNE,28,7.4,7.4,60,0.00,,,0.00,TxWx,2013-03-14 22:24:00,
2013-03-14 18:25:00,62.5,49.0,30.17,NNW,343,8.7,8.7,60,0.00,,,0.00,TxWx,2013-03-14 22:25:00,
2013-03-14 18:27:00,62.3,47.0,30.17,NW,321,9.9,10.5,59,0.00,,,0.00,TxWx,2013-03-14 22:27:00,
2013-03-14 18:28:00,62.2,47.0,30.17,North,6,12.4,12.4,58,0.00,,,0.00,TxWx,2013-03-14 22:28:00,
2013-03-14 18:30:00,62.3,47.0,30.17,East,96,6.2,6.2,58,0.00,,,0.00,TxWx,2013-03-14 22:30:00,
2013-03-14 18:31:00,62.4,47.0,30.17,North,6,4.3,4.3,58,0.00,,,0.00,TxWx,2013-03-14 22:31:00,
2013-03-14 18:32:00,62.3,47.0,30.17,WNW,298,8.7,8.7,58,0.00,,,0.00,TxWx,2013-03-14 22:32:00,
2013-03-14 18:34:00,62.0,47.0,30.17,NNW,343,6.8,11.1,58,0.00,,,0.00,TxWx,2013-03-14 22:34:00,
2013-03-14 18:35:00,62.0,47.0,30.17,NW,321,8.7,10.5,58,0.00,,,0.00,TxWx,2013-03-14 22:35:00,
2013-03-14 18:38:00,61.7,47.0,30.17,North,6,8.7,9.9,58,0.00,,,0.00,TxWx,2013-03-14 22:38:00,
2013-03-14 18:39:00,61.7,47.0,30.17,NNW,343,6.2,6.2,58,0.00,,,0.00,TxWx,2013-03-14 22:39:00,
2013-03-14 18:41:00,61.6,47.0,30.17,NNE,28,6.2,8.0,58,0.00,,,0.00,TxWx,2013-03-14 22:41:00,
2013-03-14 18:44:00,61.7,47.0,30.17,NNE,28,6.8,6.8,59,0.00,,,0.00,TxWx,2013-03-14 22:44:00,
2013-03-14 18:46:00,61.6,47.0,30.17,North,6,5.6,7.4,58,0.00,,,0.00,TxWx,2013-03-14 22:46:00,
2013-03-14 18:47:00,61.6,47.0,30.17,North,6,6.8,8.0,58,0.00,,,0.00,TxWx,2013-03-14 22:47:00,
2013-03-14 18:50:00,61.6,47.0,30.17,North,6,9.9,14.2,58,0.00,,,0.00,TxWx,2013-03-14 22:50:00,
2013-03-14 18:51:00,61.6,47.0,30.17,North,6,3.7,7.4,58,0.00,,,0.00,TxWx,2013-03-14 22:51:00,
2013-03-14 18:53:00,61.6,47.0,30.17,SE,141,5.0,5.6,58,0.00,,,0.00,TxWx,2013-03-14 22:53:00,
2013-03-14 18:55:00,61.5,47.0,30.18,NNW,343,5.6,6.8,58,0.00,,,0.00,TxWx,2013-03-14 22:55:00,
2013-03-14 18:56:00,61.4,46.0,30.18,North,6,8.7,9.9,59,0.00,,,0.00,TxWx,2013-03-14 22:56:00,
2013-03-14 18:58:00,61.4,47.0,30.18,WNW,298,5.6,6.8,60,0.00,,,0.00,TxWx,2013-03-14 22:58:00,
2013-03-14 19:00:00,61.2,47.0,30.18,NNE,28,8.0,9.3,60,0.00,,,0.00,TxWx,2013-03-14 23:00:00,
2013-03-14 19:02:00,61.1,47.0,30.18,NW,321,9.9,11.8,61,0.00,,,0.00,TxWx,2013-03-14 23:02:00,
2013-03-14 19:05:00,61.3,48.0,30.18,ENE,73,2.5,2.5,62,0.00,,,0.00,TxWx,2013-03-14 23:05:00,
2013-03-14 19:06:00,61.1,47.0,30.18,NW,321,11.1,14.2,61,0.00,,,0.00,TxWx,2013-03-14 23:06:00,
2013-03-14 19:08:00,61.1,48.0,30.18,NW,321,5.6,6.8,62,0.00,,,0.00,TxWx,2013-03-14 23:08:00,
2013-03-14 19:11:00,61.0,47.0,30.18,NNW,343,6.2,6.2,61,0.00,,,0.00,TxWx,2013-03-14 23:11:00,
2013-03-14 19:12:00,60.9,47.0,30.18,North,6,6.2,8.7,61,0.00,,,0.00,TxWx,2013-03-14 23:12:00,
2013-03-14 19:13:00,60.9,47.0,30.18,NE,51,9.9,9.9,61,0.00,,,0.00,TxWx,2013-03-14 23:13:00,
2013-03-14 19:15:00,60.9,48.0,30.18,North,6,5.6,5.6,62,0.00,,,0.00,TxWx,2013-03-14 23:15:00,
2013-03-14 19:17:00,61.3,49.0,30.18,NW,321,7.4,7.4,65,0.00,,,0.00,TxWx,2013-03-14 23:17:00,
2013-03-14 19:19:00,60.9,48.0,30.18,NNW,343,13.0,13.0,64,0.00,,,0.00,TxWx,2013-03-14 23:19:00,
2013-03-14 19:21:00,60.8,48.0,30.18,NE,51,8.7,9.9,63,0.00,,,0.00,TxWx,2013-03-14 23:21:00,
2013-03-14 19:22:00,60.9,48.0,30.18,South,186,1.9,2.5,63,0.00,,,0.00,TxWx,2013-03-14 23:22:00,
2013-03-14 19:25:00,60.7,48.0,30.18,NW,321,3.7,3.7,62,0.00,,,0.00,TxWx,2013-03-14 23:25:00,
2013-03-14 19:26:00,60.7,48.0,30.18,NW,321,6.8,8.0,63,0.00,,,0.00,TxWx,2013-03-14 23:26:00,
2013-03-14 19:27:00,60.7,48.0,30.18,NNE,28,9.3,9.3,63,0.00,,,0.00,TxWx,2013-03-14 23:27:00,
2013-03-14 19:28:00,60.7,48.0,30.18,NNW,343,6.2,6.2,63,0.00,,,0.00,TxWx,2013-03-14 23:28:00,
2013-03-14 19:30:00,60.9,49.0,30.18,NW,321,5.6,6.8,65,0.00,,,0.00,TxWx,2013-03-14 23:30:00,
2013-03-14 19:33:00,60.7,48.0,30.18,North,6,6.2,6.2,64,0.00,,,0.00,TxWx,2013-03-14 23:33:00,
2013-03-14 19:36:00,60.5,48.0,30.18,NNE,28,4.3,5.0,63,0.00,,,0.00,TxWx,2013-03-14 23:36:00,
2013-03-14 19:39:00,60.7,49.0,30.18,NNE,28,3.7,5.0,65,0.00,,,0.00,TxWx,2013-03-14 23:39:00,
2013-03-14 19:40:00,60.5,49.0,30.18,NNE,28,6.2,6.2,64,0.00,,,0.00,TxWx,2013-03-14 23:40:00,
2013-03-14 19:41:00,60.5,49.0,30.18,NW,321,6.2,6.2,64,0.00,,,0.00,TxWx,2013-03-14 23:41:00,
2013-03-14 19:44:00,60.5,49.0,30.18,NNE,28,5.0,5.0,65,0.00,,,0.00,TxWx,2013-03-14 23:44:00,
2013-03-14 19:47:00,60.3,48.0,30.18,WSW,253,2.5,2.5,64,0.00,,,0.00,TxWx,2013-03-14 23:47:00,
2013-03-14 19:48:00,60.3,48.0,30.18,NNE,28,8.7,8.7,65,0.00,,,0.00,TxWx,2013-03-14 23:48:00,
2013-03-14 19:49:00,60.3,48.0,30.18,WNW,298,5.6,7.4,65,0.00,,,0.00,TxWx,2013-03-14 23:49:00,
2013-03-14 19:50:00,60.3,48.0,30.18,NNW,343,5.0,5.0,65,0.00,,,0.00,TxWx,2013-03-14 23:50:00,
2013-03-14 19:53:00,60.3,48.0,30.18,NE,51,5.6,5.6,65,0.00,,,0.00,TxWx,2013-03-14 23:53:00,
2013-03-14 19:54:00,60.3,48.0,30.18,ENE,73,2.5,3.1,65,0.00,,,0.00,TxWx,2013-03-14 23:54:00,
2013-03-14 19:55:00,60.3,48.0,30.18,NW,321,3.7,3.7,65,0.00,,,0.00,TxWx,2013-03-14 23:55:00,
2013-03-14 19:59:00,60.5,49.0,30.18,North,6,8.0,8.0,66,0.00,,,0.00,TxWx,2013-03-14 23:59:00,
2013-03-14 20:00:00,60.4,48.0,30.18,NNW,343,6.8,6.8,66,0.00,,,0.00,TxWx,2013-03-15 00:00:00,
2013-03-14 20:01:00,60.4,48.0,30.18,NW,321,8.0,8.7,66,0.00,,,0.00,TxWx,2013-03-15 00:01:00,
2013-03-14 20:06:00,60.3,48.0,30.18,NW,321,9.3,9.3,65,0.00,,,0.00,TxWx,2013-03-15 00:06:00,
2013-03-14 20:07:00,60.2,48.0,30.18,NW,321,6.8,6.8,64,0.00,,,0.00,TxWx,2013-03-15 00:07:00,
2013-03-14 20:12:00,60.3,48.0,30.18,NW,321,3.7,5.0,65,0.00,,,0.00,TxWx,2013-03-15 00:12:00,
2013-03-14 20:13:00,60.4,48.0,30.18,WNW,298,3.7,3.7,66,0.00,,,0.00,TxWx,2013-03-15 00:13:00,
2013-03-14 20:17:00,60.2,48.0,30.18,NNW,343,6.2,6.8,65,0.00,,,0.00,TxWx,2013-03-15 00:17:00,
2013-03-14 20:18:00,60.1,48.0,30.18,NW,321,5.6,6.8,65,0.00,,,0.00,TxWx,2013-03-15 00:18:00,
2013-03-14 20:19:00,60.2,48.0,30.18,NW,321,5.0,5.0,66,0.00,,,0.00,TxWx,2013-03-15 00:19:00,
2013-03-14 20:24:00,60.0,48.0,30.18,NW,321,3.1,4.3,65,0.00,,,0.00,TxWx,2013-03-15 00:24:00,
2013-03-14 20:27:00,59.8,48.0,30.18,North,6,5.6,6.8,65,0.00,,,0.00,TxWx,2013-03-15 00:27:00,
2013-03-14 20:29:00,59.8,48.0,30.18,NW,321,8.0,10.5,65,0.00,,,0.00,TxWx,2013-03-15 00:29:00,
2013-03-14 20:30:00,60.0,49.0,30.19,WNW,298,6.2,6.2,66,0.00,,,0.00,TxWx,2013-03-15 00:30:00,
2013-03-14 20:31:00,60.0,49.0,30.19,West,276,5.6,5.6,66,0.00,,,0.00,TxWx,2013-03-15 00:31:00,
2013-03-14 20:32:00,59.7,48.0,30.19,WNW,298,6.2,6.8,65,0.00,,,0.00,TxWx,2013-03-15 00:32:00,
2013-03-14 20:34:00,59.8,48.0,30.19,WNW,298,9.9,9.9,66,0.00,,,0.00,TxWx,2013-03-15 00:34:00,
2013-03-14 20:35:00,59.8,48.0,30.19,NW,321,3.7,4.3,66,0.00,,,0.00,TxWx,2013-03-15 00:35:00,
2013-03-14 20:38:00,59.9,49.0,30.19,North,6,5.6,5.6,67,0.00,,,0.00,TxWx,2013-03-15 00:38:00,
2013-03-14 20:39:00,59.6,48.0,30.19,North,6,5.6,6.2,66,0.00,,,0.00,TxWx,2013-03-15 00:39:00,
2013-03-14 20:40:00,59.7,48.0,30.19,NW,321,2.5,3.1,66,0.00,,,0.00,TxWx,2013-03-15 00:40:00,
2013-03-14 20:42:00,59.7,49.0,30.19,NW,321,6.2,8.7,66,0.00,,,0.00,TxWx,2013-03-15 00:42:00,
2013-03-14 20:43:00,59.7,49.0,30.19,NW,321,6.2,6.8,67,0.00,,,0.00,TxWx,2013-03-15 00:43:00,
2013-03-14 20:46:00,59.8,49.0,30.19,NW,321,3.1,3.1,67,0.00,,,0.00,TxWx,2013-03-15 00:46:00,
2013-03-14 20:47:00,59.8,49.0,30.19,NW,321,6.8,8.0,67,0.00,,,0.00,TxWx,2013-03-15 00:47:00,
2013-03-14 20:48:00,59.7,49.0,30.19,North,6,4.3,5.0,67,0.00,,,0.00,TxWx,2013-03-15 00:48:00,
2013-03-14 20:52:00,59.5,49.0,30.19,NW,321,5.6,6.2,66,0.00,,,0.00,TxWx,2013-03-15 00:52:00,
2013-03-14 20:53:00,59.6,49.0,30.19,North,6,5.0,5.0,67,0.00,,,0.00,TxWx,2013-03-15 00:53:00,
2013-03-14 20:55:00,59.6,49.0,30.19,NW,321,4.3,4.3,67,0.00,,,0.00,TxWx,2013-03-15 00:55:00,
2013-03-14 20:58:00,59.5,49.0,30.19,North,6,4.3,5.0,67,0.00,,,0.00,TxWx,2013-03-15 00:58:00,
2013-03-14 21:00:00,59.5,49.0,30.19,WNW,298,5.6,5.6,67,0.00,,,0.00,TxWx,2013-03-15 01:00:00,
2013-03-14 21:02:00,59.4,48.0,30.19,NW,321,4.3,5.0,67,0.00,,,0.00,TxWx,2013-03-15 01:02:00,
2013-03-14 21:04:00,59.5,48.0,30.19,NNW,343,6.2,6.2,68,0.00,,,0.00,TxWx,2013-03-15 01:04:00,
2013-03-14 21:06:00,59.3,48.0,30.19,NW,321,6.2,6.2,68,0.00,,,0.00,TxWx,2013-03-15 01:06:00,
2013-03-14 21:09:00,59.2,48.0,30.19,NW,321,5.6,7.4,67,0.00,,,0.00,TxWx,2013-03-15 01:09:00,
2013-03-14 21:11:00,59.2,48.0,30.19,NW,321,3.7,5.0,68,0.00,,,0.00,TxWx,2013-03-15 01:11:00,
2013-03-14 21:15:00,59.2,48.0,30.20,NW,321,3.1,4.3,68,0.00,,,0.00,TxWx,2013-03-15 01:15:00,
2013-03-14 21:20:00,59.1,48.0,30.19,NNW,343,2.5,3.1,68,0.00,,,0.00,TxWx,2013-03-15 01:20:00,
2013-03-14 21:22:00,59.1,48.0,30.19,WNW,298,5.0,5.0,68,0.00,,,0.00,TxWx,2013-03-15 01:22:00,
2013-03-14 21:23:00,59.2,49.0,30.19,WNW,298,1.9,1.9,69,0.00,,,0.00,TxWx,2013-03-15 01:23:00,
2013-03-14 21:27:00,59.0,49.0,30.19,NW,321,2.5,3.1,69,0.00,,,0.00,TxWx,2013-03-15 01:27:00,
2013-03-14 21:28:00,59.1,49.0,30.19,NW,321,9.9,9.9,69,0.00,,,0.00,TxWx,2013-03-15 01:28:00,
2013-03-14 21:33:00,59.1,49.0,30.19,WNW,298,5.0,5.6,69,0.00,,,0.00,TxWx,2013-03-15 01:33:00,
2013-03-14 21:34:00,58.9,49.0,30.19,NNW,343,5.0,5.6,69,0.00,,,0.00,TxWx,2013-03-15 01:34:00,
2013-03-14 21:35:00,58.8,48.0,30.19,NW,321,4.3,4.3,68,0.00,,,0.00,TxWx,2013-03-15 01:35:00,
2013-03-14 21:40:00,58.7,48.0,30.19,NW,321,4.3,5.0,68,0.00,,,0.00,TxWx,2013-03-15 01:40:00,
2013-03-14 21:41:00,58.9,49.0,30.19,NNW,343,5.6,6.2,69,0.00,,,0.00,TxWx,2013-03-15 01:41:00,
2013-03-14 21:44:00,58.8,49.0,30.20,NW,321,8.0,8.0,69,0.00,,,0.00,TxWx,2013-03-15 01:44:00,
2013-03-14 21:45:00,58.8,49.0,30.20,NW,321,5.0,5.0,69,0.00,,,0.00,TxWx,2013-03-15 01:45:00,
2013-03-14 21:46:00,58.8,49.0,30.20,NW,321,5.0,5.6,69,0.00,,,0.00,TxWx,2013-03-15 01:46:00,
2013-03-14 21:50:00,58.8,49.0,30.20,NW,321,6.2,6.2,69,0.00,,,0.00,TxWx,2013-03-15 01:50:00,
2013-03-14 21:51:00,58.8,49.0,30.20,NW,321,4.3,4.3,69,0.00,,,0.00,TxWx,2013-03-15 01:51:00,
2013-03-14 21:56:00,59.0,49.0,30.20,WSW,253,3.7,3.7,70,0.00,,,0.00,TxWx,2013-03-15 01:56:00,
2013-03-14 21:57:00,58.8,49.0,30.20,NW,321,5.0,5.6,70,0.00,,,0.00,TxWx,2013-03-15 01:57:00,
2013-03-14 21:58:00,58.9,49.0,30.20,NW,321,3.7,5.0,70,0.00,,,0.00,TxWx,2013-03-15 01:58:00,
2013-03-14 21:59:00,59.0,49.0,30.20,NNW,343,8.0,8.0,70,0.00,,,0.00,TxWx,2013-03-15 01:59:00,
2013-03-14 22:02:00,58.8,49.0,30.20,NW,321,3.7,5.6,70,0.00,,,0.00,TxWx,2013-03-15 02:02:00,
2013-03-14 22:03:00,58.8,49.0,30.20,WNW,298,3.7,3.7,70,0.00,,,0.00,TxWx,2013-03-15 02:03:00,
2013-03-14 22:04:00,58.9,49.0,30.20,NW,321,4.3,4.3,70,0.00,,,0.00,TxWx,2013-03-15 02:04:00,
2013-03-14 22:08:00,58.7,49.0,30.20,NW,321,5.6,5.6,69,0.00,,,0.00,TxWx,2013-03-15 02:08:00,
2013-03-14 22:09:00,58.5,48.0,30.20,NNW,343,6.2,9.9,69,0.00,,,0.00,TxWx,2013-03-15 02:09:00,
2013-03-14 22:10:00,58.6,49.0,30.20,West,276,3.7,3.7,69,0.00,,,0.00,TxWx,2013-03-15 02:10:00,
2013-03-14 22:13:00,58.5,49.0,30.20,NW,321,5.6,5.6,70,0.00,,,0.00,TxWx,2013-03-15 02:13:00,
2013-03-14 22:14:00,58.4,48.0,30.20,WNW,298,3.1,3.1,70,0.00,,,0.00,TxWx,2013-03-15 02:14:00,
2013-03-14 22:16:00,58.6,49.0,30.20,WNW,298,4.3,4.3,70,0.00,,,0.00,TxWx,2013-03-15 02:16:00,
2013-03-14 22:18:00,58.6,49.0,30.20,NNW,343,6.2,6.8,71,0.00,,,0.00,TxWx,2013-03-15 02:18:00,
2013-03-14 22:20:00,58.3,48.0,30.20,NNW,343,5.6,5.6,70,0.00,,,0.00,TxWx,2013-03-15 02:20:00,
2013-03-14 22:22:00,58.4,48.0,30.20,NW,321,3.1,3.7,70,0.00,,,0.00,TxWx,2013-03-15 02:22:00,
2013-03-14 22:24:00,58.5,49.0,30.20,NNW,343,5.6,5.6,71,0.00,,,0.00,TxWx,2013-03-15 02:24:00,
2013-03-14 22:25:00,58.4,48.0,30.20,NW,321,5.0,5.6,70,0.00,,,0.00,TxWx,2013-03-15 02:25:00,
2013-03-14 22:27:00,58.3,48.0,30.20,NNW,343,9.9,13.0,70,0.00,,,0.00,TxWx,2013-03-15 02:27:00,
2013-03-14 22:29:00,58.5,49.0,30.20,NW,321,2.5,3.7,71,0.00,,,0.00,TxWx,2013-03-15 02:29:00,
2013-03-14 22:30:00,58.7,50.0,30.20,NW,321,5.6,5.6,71,0.00,,,0.00,TxWx,2013-03-15 02:30:00,
2013-03-14 22:31:00,58.6,50.0,30.20,NNW,343,6.8,9.3,71,0.00,,,0.00,TxWx,2013-03-15 02:31:00,
2013-03-14 22:33:00,58.5,49.0,30.21,NNW,343,5.6,5.6,71,0.00,,,0.00,TxWx,2013-03-15 02:33:00,
2013-03-14 22:34:00,58.4,48.0,30.21,WNW,298,4.3,4.3,71,0.00,,,0.00,TxWx,2013-03-15 02:34:00,
2013-03-14 22:35:00,58.4,48.0,30.21,WNW,298,3.1,4.3,71,0.00,,,0.00,TxWx,2013-03-15 02:35:00,
2013-03-14 22:36:00,58.5,50.0,30.21,WNW,298,3.7,4.3,71,0.00,,,0.00,TxWx,2013-03-15 02:36:00,
2013-03-14 22:38:00,58.4,49.0,30.20,WNW,298,4.3,4.3,71,0.00,,,0.00,TxWx,2013-03-15 02:38:00,
2013-03-14 22:40:00,58.5,50.0,30.21,WNW,298,3.1,3.1,71,0.00,,,0.00,TxWx,2013-03-15 02:40:00,
2013-03-14 22:41:00,58.5,50.0,30.20,West,276,3.1,3.7,72,0.00,,,0.00,TxWx,2013-03-15 02:41:00,
2013-03-14 22:43:00,58.5,50.0,30.21,WNW,298,4.3,5.6,72,0.00,,,0.00,TxWx,2013-03-15 02:43:00,
2013-03-14 22:44:00,58.3,49.0,30.20,WNW,298,3.1,3.1,71,0.00,,,0.00,TxWx,2013-03-15 02:44:00,
2013-03-14 22:47:00,58.3,49.0,30.20,NW,321,5.0,5.6,71,0.00,,,0.00,TxWx,2013-03-15 02:47:00,
2013-03-14 22:49:00,58.3,49.0,30.21,West,276,2.5,3.7,72,0.00,,,0.00,TxWx,2013-03-15 02:49:00,
2013-03-14 22:50:00,58.5,49.0,30.21,NW,321,3.1,3.1,72,0.00,,,0.00,TxWx,2013-03-15 02:50:00,
2013-03-14 22:53:00,58.5,49.0,30.20,NNW,343,3.1,4.3,72,0.00,,,0.00,TxWx,2013-03-15 02:53:00,
2013-03-14 22:55:00,58.4,49.0,30.20,West,276,4.3,5.6,72,0.00,,,0.00,TxWx,2013-03-15 02:55:00,
2013-03-14 22:56:00,58.3,49.0,30.20,WNW,298,4.3,5.0,72,0.00,,,0.00,TxWx,2013-03-15 02:56:00,
2013-03-14 22:58:00,58.5,49.0,30.20,NW,321,3.7,3.7,72,0.00,,,0.00,TxWx,2013-03-15 02:58:00,
2013-03-14 23:01:00,58.2,49.0,30.20,WNW,298,5.6,5.6,71,0.00,,,0.00,TxWx,2013-03-15 03:01:00,
2013-03-14 23:03:00,58.2,49.0,30.20,West,276,2.5,3.1,72,0.00,,,0.00,TxWx,2013-03-15 03:03:00,
2013-03-14 23:04:00,58.2,49.0,30.20,NW,321,3.7,4.3,72,0.00,,,0.00,TxWx,2013-03-15 03:04:00,
2013-03-14 23:07:00,58.3,49.0,30.20,WNW,298,6.2,6.8,72,0.00,,,0.00,TxWx,2013-03-15 03:07:00,
2013-03-14 23:08:00,58.3,49.0,30.21,NW,321,2.5,3.1,72,0.00,,,0.00,TxWx,2013-03-15 03:08:00,
2013-03-14 23:09:00,58.3,49.0,30.20,NW,321,6.2,6.2,72,0.00,,,0.00,TxWx,2013-03-15 03:09:00,
2013-03-14 23:14:00,57.9,49.0,30.20,NW,321,5.0,5.0,72,0.00,,,0.00,TxWx,2013-03-15 03:14:00,
2013-03-14 23:15:00,58.1,49.0,30.20,NNW,343,6.2,6.2,73,0.00,,,0.00,TxWx,2013-03-15 03:15:00,
2013-03-14 23:20:00,57.9,49.0,30.21,WNW,298,6.2,6.2,72,0.00,,,0.00,TxWx,2013-03-15 03:20:00,
2013-03-14 23:21:00,58.0,49.0,30.21,WNW,298,4.3,5.0,72,0.00,,,0.00,TxWx,2013-03-15 03:21:00,
2013-03-14 23:25:00,58.1,49.0,30.21,WNW,298,4.3,4.3,73,0.00,,,0.00,TxWx,2013-03-15 03:25:00,
2013-03-14 23:26:00,58.3,49.0,30.21,WNW,298,3.7,3.7,73,0.00,,,0.00,TxWx,2013-03-15 03:26:00,
2013-03-14 23:27:00,58.3,49.0,30.21,WNW,298,5.6,5.6,73,0.00,,,0.00,TxWx,2013-03-15 03:27:00,
2013-03-14 23:28:00,58.3,49.0,30.21,NW,321,5.6,5.6,73,0.00,,,0.00,TxWx,2013-03-15 03:28:00,
2013-03-14 23:31:00,58.6,51.0,30.21,NW,321,3.1,3.1,74,0.00,,,0.00,TxWx,2013-03-15 03:31:00,
2013-03-14 23:32:00,58.5,51.0,30.21,NW,321,4.3,5.0,74,0.00,,,0.00,TxWx,2013-03-15 03:32:00,
2013-03-14 23:33:00,58.5,50.0,30.21,NNW,343,4.3,4.3,74,0.00,,,0.00,TxWx,2013-03-15 03:33:00,
2013-03-14 23:37:00,58.2,49.0,30.21,NW,321,6.8,6.8,73,0.00,,,0.00,TxWx,2013-03-15 03:37:00,
2013-03-14 23:39:00,58.3,49.0,30.21,NNW,343,6.8,6.8,73,0.00,,,0.00,TxWx,2013-03-15 03:39:00,
2013-03-14 23:43:00,58.2,49.0,30.21,WNW,298,5.0,5.0,73,0.00,,,0.00,TxWx,2013-03-15 03:43:00,
2013-03-14 23:46:00,58.2,49.0,30.21,NW,321,8.0,9.9,73,0.00,,,0.00,TxWx,2013-03-15 03:46:00,
2013-03-14 23:49:00,58.2,49.0,30.21,NW,321,6.2,6.2,73,0.00,,,0.00,TxWx,2013-03-15 03:49:00,
2013-03-14 23:51:00,58.4,50.0,30.21,West,276,5.6,6.2,74,0.00,,,0.00,TxWx,2013-03-15 03:51:00,
2013-03-14 23:54:00,58.1,49.0,30.21,WNW,298,11.1,11.1,73,0.00,,,0.00,TxWx,2013-03-15 03:54:00,
2013-03-14 23:56:00,58.4,50.0,30.21,NW,321,6.2,6.8,74,0.00,,,0.00,TxWx,2013-03-15 03:56:00,
2013-03-14 23:58:00,58.3,49.0,30.21,NW,321,7.4,7.4,73,0.00,,,0.00,TxWx,2013-03-15 03:58:00,
2013-03-14 23:59:00,58.2,49.0,30.21,WNW,298,8.0,8.7,73,0.00,,,0.00,TxWx,2013-03-15 03:59:00,